<?xml version="1.0" encoding="UTF-8"?>
<gpx version="1.1" creator="2bulu-scraper" xmlns="http://www.topografix.com/GPX/1/1">
  <metadata><name>龙头山</name><desc>source: 2bulu.com trackId=80936961; exported 2026-08-31T01:49:21.904Z</desc>
    <bounds minlat="28.8127845" minlon="104.7119819" maxlat="28.8293688" maxlon="104.7357305"/>
    <link href="https://www.2bulu.com/track/t-KpxP02ReYMzp%252FR2KBg5Tzw%253D%253D.htm"><text>2bulu 源页面</text></link>
  </metadata>
  <wpt lat="28.8154" lon="104.7155389"><ele>324</ele><name>
        </name></wpt>
  <wpt lat="28.8155791" lon="104.7166129"><ele>353</ele><name>
        </name></wpt>
  <wpt lat="28.8168484" lon="104.7187957"><ele>352</ele><name>
        </name></wpt>
  <wpt lat="28.8190597" lon="104.723656"><ele>409</ele><name>
        </name></wpt>
  <wpt lat="28.8217378" lon="104.7331192"><ele>396</ele><name>
        </name></wpt>
  <wpt lat="28.8218553" lon="104.7332565"><ele>392</ele><name>
        </name></wpt>
  <wpt lat="28.8233534" lon="104.7348102"><ele>313</ele><name>
        </name></wpt>
  <wpt lat="28.8248646" lon="104.7337162"><ele>311</ele><name>
        </name></wpt>
  <wpt lat="28.8261677" lon="104.7329278"><ele>315</ele><name>
        </name></wpt>
  <wpt lat="28.827336" lon="104.7335644"><ele>342</ele><name>
        </name></wpt>
  <wpt lat="28.8289377" lon="104.7332502"><ele>382</ele><name>
        </name></wpt>
  <wpt lat="28.8293241" lon="104.7310918"><ele>394</ele><name>
        </name></wpt>
  <wpt lat="28.8185927" lon="104.7144913"><ele>451</ele><name>
        </name></wpt>
  <wpt lat="28.8182828" lon="104.7126245"><ele>426</ele><name>
        </name></wpt>
  <wpt lat="28.8160901" lon="104.7126973"><ele>315</ele><name>
        </name></wpt>
  <trk><name>龙头山</name>
      <trkseg>
        <trkpt lat="28.8128603" lon="104.7142515"><ele>288.98</ele><time>2026-03-22T00:27:44.000Z</time></trkpt>
        <trkpt lat="28.8128114" lon="104.7141501"><ele>288.98</ele><time>2026-03-22T00:27:52.000Z</time></trkpt>
        <trkpt lat="28.8127845" lon="104.714034"><ele>291.22</ele><time>2026-03-22T00:28:00.000Z</time></trkpt>
        <trkpt lat="28.8128119" lon="104.7139185"><ele>293.12</ele><time>2026-03-22T00:28:08.000Z</time></trkpt>
        <trkpt lat="28.8128319" lon="104.7138043"><ele>293.93</ele><time>2026-03-22T00:28:16.000Z</time></trkpt>
        <trkpt lat="28.8128594" lon="104.7136933"><ele>294.73</ele><time>2026-03-22T00:28:24.000Z</time></trkpt>
        <trkpt lat="28.8128973" lon="104.713595"><ele>295.93</ele><time>2026-03-22T00:28:32.000Z</time></trkpt>
        <trkpt lat="28.8129501" lon="104.7135105"><ele>296.75</ele><time>2026-03-22T00:28:40.000Z</time></trkpt>
        <trkpt lat="28.8130252" lon="104.7134357"><ele>297.22</ele><time>2026-03-22T00:28:48.000Z</time></trkpt>
        <trkpt lat="28.8131284" lon="104.7134109"><ele>297.11</ele><time>2026-03-22T00:28:58.000Z</time></trkpt>
        <trkpt lat="28.8132281" lon="104.7133625"><ele>297.34</ele><time>2026-03-22T00:29:08.000Z</time></trkpt>
        <trkpt lat="28.8133195" lon="104.7133066"><ele>297.59</ele><time>2026-03-22T00:29:18.000Z</time></trkpt>
        <trkpt lat="28.8134111" lon="104.7132371"><ele>298.22</ele><time>2026-03-22T00:29:28.000Z</time></trkpt>
        <trkpt lat="28.8134979" lon="104.713166"><ele>298.74</ele><time>2026-03-22T00:29:36.000Z</time></trkpt>
        <trkpt lat="28.8135534" lon="104.7130779"><ele>298.86</ele><time>2026-03-22T00:29:44.000Z</time></trkpt>
        <trkpt lat="28.8135812" lon="104.7130597"><ele>300.34</ele><time>2026-03-22T00:29:48.000Z</time></trkpt>
        <trkpt lat="28.8136305" lon="104.7130013"><ele>301.03</ele><time>2026-03-22T00:30:20.000Z</time></trkpt>
        <trkpt lat="28.8136778" lon="104.7129005"><ele>299.57</ele><time>2026-03-22T00:30:28.000Z</time></trkpt>
        <trkpt lat="28.8137472" lon="104.7128081"><ele>298.8</ele><time>2026-03-22T00:30:36.000Z</time></trkpt>
        <trkpt lat="28.8138436" lon="104.7128141"><ele>299.13</ele><time>2026-03-22T00:30:46.000Z</time></trkpt>
        <trkpt lat="28.8139438" lon="104.7128502"><ele>299.2</ele><time>2026-03-22T00:30:56.000Z</time></trkpt>
        <trkpt lat="28.8139331" lon="104.7129448"><ele>300.22</ele><time>2026-03-22T00:31:16.000Z</time></trkpt>
        <trkpt lat="28.8138814" lon="104.7130451"><ele>300.82</ele><time>2026-03-22T00:31:36.000Z</time></trkpt>
        <trkpt lat="28.813822" lon="104.7131548"><ele>303.34</ele><time>2026-03-22T00:32:24.000Z</time></trkpt>
        <trkpt lat="28.8137427" lon="104.713231"><ele>306.92</ele><time>2026-03-22T00:32:32.000Z</time></trkpt>
        <trkpt lat="28.8136735" lon="104.7133149"><ele>309.17</ele><time>2026-03-22T00:32:40.000Z</time></trkpt>
        <trkpt lat="28.8136096" lon="104.7134104"><ele>310.82</ele><time>2026-03-22T00:32:48.000Z</time></trkpt>
        <trkpt lat="28.8135559" lon="104.7135129"><ele>311.72</ele><time>2026-03-22T00:32:56.000Z</time></trkpt>
        <trkpt lat="28.8134887" lon="104.7136054"><ele>312.39</ele><time>2026-03-22T00:33:04.000Z</time></trkpt>
        <trkpt lat="28.8134021" lon="104.7136796"><ele>312.85</ele><time>2026-03-22T00:33:12.000Z</time></trkpt>
        <trkpt lat="28.8134414" lon="104.7136376"><ele>313.19</ele><time>2026-03-22T00:33:26.000Z</time></trkpt>
        <trkpt lat="28.8135037" lon="104.7135437"><ele>313.28</ele><time>2026-03-22T00:33:32.000Z</time></trkpt>
        <trkpt lat="28.8135698" lon="104.713435"><ele>313.78</ele><time>2026-03-22T00:33:38.000Z</time></trkpt>
        <trkpt lat="28.8136305" lon="104.7133316"><ele>314.32</ele><time>2026-03-22T00:33:44.000Z</time></trkpt>
        <trkpt lat="28.8136875" lon="104.7132352"><ele>314.84</ele><time>2026-03-22T00:33:50.000Z</time></trkpt>
        <trkpt lat="28.8137684" lon="104.713148"><ele>315.56</ele><time>2026-03-22T00:33:58.000Z</time></trkpt>
        <trkpt lat="28.8138724" lon="104.7131256"><ele>316.27</ele><time>2026-03-22T00:34:06.000Z</time></trkpt>
        <trkpt lat="28.8139905" lon="104.713136"><ele>316.75</ele><time>2026-03-22T00:34:14.000Z</time></trkpt>
        <trkpt lat="28.8141082" lon="104.7131574"><ele>316.59</ele><time>2026-03-22T00:34:22.000Z</time></trkpt>
        <trkpt lat="28.8142045" lon="104.7132342"><ele>316.38</ele><time>2026-03-22T00:34:30.000Z</time></trkpt>
        <trkpt lat="28.8142864" lon="104.7133373"><ele>315.32</ele><time>2026-03-22T00:34:38.000Z</time></trkpt>
        <trkpt lat="28.814252" lon="104.7133"><ele>314.97</ele><time>2026-03-22T00:34:54.000Z</time></trkpt>
        <trkpt lat="28.8141588" lon="104.7132506"><ele>314.25</ele><time>2026-03-22T00:35:04.000Z</time></trkpt>
        <trkpt lat="28.8140943" lon="104.7132342"><ele>314.21</ele><time>2026-03-22T00:35:10.000Z</time></trkpt>
        <trkpt lat="28.814143" lon="104.7132533"><ele>314.47</ele><time>2026-03-22T00:35:38.000Z</time></trkpt>
        <trkpt lat="28.8142263" lon="104.7133228"><ele>313.57</ele><time>2026-03-22T00:35:46.000Z</time></trkpt>
        <trkpt lat="28.8143158" lon="104.7134122"><ele>312.87</ele><time>2026-03-22T00:35:54.000Z</time></trkpt>
        <trkpt lat="28.8144071" lon="104.7134962"><ele>312.01</ele><time>2026-03-22T00:36:02.000Z</time></trkpt>
        <trkpt lat="28.8144978" lon="104.7135742"><ele>312.01</ele><time>2026-03-22T00:36:10.000Z</time></trkpt>
        <trkpt lat="28.814584" lon="104.7136573"><ele>312.04</ele><time>2026-03-22T00:36:18.000Z</time></trkpt>
        <trkpt lat="28.8146812" lon="104.7137252"><ele>312.33</ele><time>2026-03-22T00:36:26.000Z</time></trkpt>
        <trkpt lat="28.814775" lon="104.7137971"><ele>312.77</ele><time>2026-03-22T00:36:34.000Z</time></trkpt>
        <trkpt lat="28.8148529" lon="104.7138844"><ele>313.13</ele><time>2026-03-22T00:36:42.000Z</time></trkpt>
        <trkpt lat="28.8149113" lon="104.7139846"><ele>313.35</ele><time>2026-03-22T00:36:50.000Z</time></trkpt>
        <trkpt lat="28.8149412" lon="104.714102"><ele>313.27</ele><time>2026-03-22T00:36:58.000Z</time></trkpt>
        <trkpt lat="28.8149584" lon="104.7142155"><ele>313.52</ele><time>2026-03-22T00:37:06.000Z</time></trkpt>
        <trkpt lat="28.8149983" lon="104.7143283"><ele>313.77</ele><time>2026-03-22T00:37:14.000Z</time></trkpt>
        <trkpt lat="28.8150502" lon="104.7144423"><ele>313.88</ele><time>2026-03-22T00:37:22.000Z</time></trkpt>
        <trkpt lat="28.8150931" lon="104.7145549"><ele>314.46</ele><time>2026-03-22T00:37:30.000Z</time></trkpt>
        <trkpt lat="28.8151677" lon="104.7146344"><ele>315.16</ele><time>2026-03-22T00:37:38.000Z</time></trkpt>
        <trkpt lat="28.8152593" lon="104.7146894"><ele>315.23</ele><time>2026-03-22T00:37:46.000Z</time></trkpt>
        <trkpt lat="28.8153463" lon="104.7147592"><ele>315.54</ele><time>2026-03-22T00:37:54.000Z</time></trkpt>
        <trkpt lat="28.8154074" lon="104.7148456"><ele>316.19</ele><time>2026-03-22T00:38:02.000Z</time></trkpt>
        <trkpt lat="28.8154407" lon="104.7149485"><ele>317.1</ele><time>2026-03-22T00:38:10.000Z</time></trkpt>
        <trkpt lat="28.8154634" lon="104.7150585"><ele>318.18</ele><time>2026-03-22T00:38:18.000Z</time></trkpt>
        <trkpt lat="28.815475" lon="104.7151059"><ele>319.12</ele><time>2026-03-22T00:38:22.000Z</time></trkpt>
        <trkpt lat="28.815454" lon="104.7152016"><ele>319.68</ele><time>2026-03-22T00:38:36.000Z</time></trkpt>
        <trkpt lat="28.8154207" lon="104.7153136"><ele>320.77</ele><time>2026-03-22T00:38:44.000Z</time></trkpt>
        <trkpt lat="28.815414" lon="104.7154341"><ele>321.92</ele><time>2026-03-22T00:38:52.000Z</time></trkpt>
        <trkpt lat="28.8154" lon="104.7155389"><ele>323.93</ele><time>2026-03-22T00:39:10.000Z</time></trkpt>
        <trkpt lat="28.8153315" lon="104.7155174"><ele>327.73</ele><time>2026-03-22T00:39:28.000Z</time></trkpt>
        <trkpt lat="28.8152922" lon="104.7155739"><ele>331.46</ele><time>2026-03-22T00:39:44.000Z</time></trkpt>
        <trkpt lat="28.8153028" lon="104.7156673"><ele>333.78</ele><time>2026-03-22T00:39:52.000Z</time></trkpt>
        <trkpt lat="28.8153068" lon="104.7157872"><ele>335.25</ele><time>2026-03-22T00:40:02.000Z</time></trkpt>
        <trkpt lat="28.815345" lon="104.7159048"><ele>336.94</ele><time>2026-03-22T00:40:14.000Z</time></trkpt>
        <trkpt lat="28.8154048" lon="104.7159968"><ele>340.73</ele><time>2026-03-22T00:40:50.000Z</time></trkpt>
        <trkpt lat="28.8154042" lon="104.7161009"><ele>344.4</ele><time>2026-03-22T00:41:04.000Z</time></trkpt>
        <trkpt lat="28.8154083" lon="104.7162213"><ele>347.63</ele><time>2026-03-22T00:41:16.000Z</time></trkpt>
        <trkpt lat="28.8154397" lon="104.7163301"><ele>349.95</ele><time>2026-03-22T00:41:24.000Z</time></trkpt>
        <trkpt lat="28.8154917" lon="104.7164397"><ele>351.65</ele><time>2026-03-22T00:41:32.000Z</time></trkpt>
        <trkpt lat="28.815544" lon="104.716547"><ele>352.56</ele><time>2026-03-22T00:41:40.000Z</time></trkpt>
        <trkpt lat="28.8155791" lon="104.7166129"><ele>352.93</ele><time>2026-03-22T00:41:46.000Z</time></trkpt>
        <trkpt lat="28.8156306" lon="104.7166921"><ele>352.95</ele><time>2026-03-22T00:41:58.000Z</time></trkpt>
        <trkpt lat="28.8156794" lon="104.7167853"><ele>352.56</ele><time>2026-03-22T00:42:06.000Z</time></trkpt>
        <trkpt lat="28.8157189" lon="104.7168815"><ele>350.87</ele><time>2026-03-22T00:42:14.000Z</time></trkpt>
        <trkpt lat="28.815764" lon="104.716977"><ele>349.03</ele><time>2026-03-22T00:42:22.000Z</time></trkpt>
        <trkpt lat="28.8158207" lon="104.7170716"><ele>347.43</ele><time>2026-03-22T00:42:30.000Z</time></trkpt>
        <trkpt lat="28.8158789" lon="104.7171685"><ele>346.17</ele><time>2026-03-22T00:42:38.000Z</time></trkpt>
        <trkpt lat="28.8159383" lon="104.7172586"><ele>345.37</ele><time>2026-03-22T00:42:46.000Z</time></trkpt>
        <trkpt lat="28.816" lon="104.7173495"><ele>345.51</ele><time>2026-03-22T00:42:54.000Z</time></trkpt>
        <trkpt lat="28.8160579" lon="104.717435"><ele>346.32</ele><time>2026-03-22T00:43:02.000Z</time></trkpt>
        <trkpt lat="28.8161195" lon="104.7175347"><ele>347.61</ele><time>2026-03-22T00:43:12.000Z</time></trkpt>
        <trkpt lat="28.8161864" lon="104.7176251"><ele>349.75</ele><time>2026-03-22T00:43:23.000Z</time></trkpt>
        <trkpt lat="28.816211" lon="104.7176522"><ele>351.49</ele><time>2026-03-22T00:43:24.000Z</time></trkpt>
        <trkpt lat="28.8162708" lon="104.7177267"><ele>352.53</ele><time>2026-03-22T00:43:38.000Z</time></trkpt>
        <trkpt lat="28.8163364" lon="104.717803"><ele>353.7</ele><time>2026-03-22T00:43:46.000Z</time></trkpt>
        <trkpt lat="28.8163921" lon="104.7178941"><ele>354.83</ele><time>2026-03-22T00:43:54.000Z</time></trkpt>
        <trkpt lat="28.8164361" lon="104.7179967"><ele>355.64</ele><time>2026-03-22T00:44:02.000Z</time></trkpt>
        <trkpt lat="28.8164519" lon="104.7180456"><ele>355.73</ele><time>2026-03-22T00:44:08.000Z</time></trkpt>
        <trkpt lat="28.8164781" lon="104.7181383"><ele>355.73</ele><time>2026-03-22T00:44:18.000Z</time></trkpt>
        <trkpt lat="28.8165262" lon="104.7182405"><ele>354.96</ele><time>2026-03-22T00:44:26.000Z</time></trkpt>
        <trkpt lat="28.8165795" lon="104.71835"><ele>353.53</ele><time>2026-03-22T00:44:34.000Z</time></trkpt>
        <trkpt lat="28.8166247" lon="104.7184183"><ele>352.19</ele><time>2026-03-22T00:44:42.000Z</time></trkpt>
        <trkpt lat="28.8166953" lon="104.7184873"><ele>351.41</ele><time>2026-03-22T00:45:16.000Z</time></trkpt>
        <trkpt lat="28.8167224" lon="104.7185275"><ele>351.34</ele><time>2026-03-22T00:45:24.000Z</time></trkpt>
        <trkpt lat="28.816761" lon="104.7186041"><ele>351.46</ele><time>2026-03-22T00:45:34.000Z</time></trkpt>
        <trkpt lat="28.8168017" lon="104.7186957"><ele>351.48</ele><time>2026-03-22T00:45:42.000Z</time></trkpt>
        <trkpt lat="28.8168484" lon="104.7187957"><ele>352</ele><time>2026-03-22T00:45:52.000Z</time></trkpt>
        <trkpt lat="28.8169119" lon="104.7188932"><ele>353.2</ele><time>2026-03-22T00:46:36.000Z</time></trkpt>
        <trkpt lat="28.8169796" lon="104.7189876"><ele>355.13</ele><time>2026-03-22T00:46:44.000Z</time></trkpt>
        <trkpt lat="28.8170336" lon="104.7190839"><ele>356.69</ele><time>2026-03-22T00:46:52.000Z</time></trkpt>
        <trkpt lat="28.8170786" lon="104.7191788"><ele>357.85</ele><time>2026-03-22T00:47:00.000Z</time></trkpt>
        <trkpt lat="28.8171207" lon="104.7192724"><ele>358.49</ele><time>2026-03-22T00:47:08.000Z</time></trkpt>
        <trkpt lat="28.8171646" lon="104.7193679"><ele>359.11</ele><time>2026-03-22T00:47:16.000Z</time></trkpt>
        <trkpt lat="28.8172104" lon="104.7194598"><ele>359.36</ele><time>2026-03-22T00:47:24.000Z</time></trkpt>
        <trkpt lat="28.8172571" lon="104.7195499"><ele>359.8</ele><time>2026-03-22T00:47:32.000Z</time></trkpt>
        <trkpt lat="28.8173068" lon="104.7196432"><ele>360.03</ele><time>2026-03-22T00:47:40.000Z</time></trkpt>
        <trkpt lat="28.8173623" lon="104.7197462"><ele>360.05</ele><time>2026-03-22T00:47:48.000Z</time></trkpt>
        <trkpt lat="28.8174263" lon="104.719845"><ele>360.39</ele><time>2026-03-22T00:47:56.000Z</time></trkpt>
        <trkpt lat="28.8174762" lon="104.7199211"><ele>360.58</ele><time>2026-03-22T00:48:06.000Z</time></trkpt>
        <trkpt lat="28.8175318" lon="104.7200017"><ele>360.73</ele><time>2026-03-22T00:50:12.000Z</time></trkpt>
        <trkpt lat="28.8175648" lon="104.7201096"><ele>360.5</ele><time>2026-03-22T00:50:20.000Z</time></trkpt>
        <trkpt lat="28.8175952" lon="104.7202238"><ele>360.09</ele><time>2026-03-22T00:50:28.000Z</time></trkpt>
        <trkpt lat="28.8176111" lon="104.7202632"><ele>359.6</ele><time>2026-03-22T00:50:32.000Z</time></trkpt>
        <trkpt lat="28.817634" lon="104.7203539"><ele>359.28</ele><time>2026-03-22T00:52:10.000Z</time></trkpt>
        <trkpt lat="28.8177123" lon="104.7204333"><ele>356.91</ele><time>2026-03-22T00:52:18.000Z</time></trkpt>
        <trkpt lat="28.817773" lon="104.7205342"><ele>355.28</ele><time>2026-03-22T00:52:26.000Z</time></trkpt>
        <trkpt lat="28.8178255" lon="104.7206425"><ele>355.23</ele><time>2026-03-22T00:52:34.000Z</time></trkpt>
        <trkpt lat="28.8178736" lon="104.7207411"><ele>355.99</ele><time>2026-03-22T00:52:42.000Z</time></trkpt>
        <trkpt lat="28.8179474" lon="104.7208332"><ele>356.76</ele><time>2026-03-22T00:52:52.000Z</time></trkpt>
        <trkpt lat="28.8180082" lon="104.7209447"><ele>357.7</ele><time>2026-03-22T00:53:34.000Z</time></trkpt>
        <trkpt lat="28.81806" lon="104.7210566"><ele>359.85</ele><time>2026-03-22T00:53:42.000Z</time></trkpt>
        <trkpt lat="28.8181152" lon="104.7211651"><ele>362.26</ele><time>2026-03-22T00:53:50.000Z</time></trkpt>
        <trkpt lat="28.8181818" lon="104.721268"><ele>363.93</ele><time>2026-03-22T00:53:58.000Z</time></trkpt>
        <trkpt lat="28.8182266" lon="104.7213823"><ele>365.37</ele><time>2026-03-22T00:54:06.000Z</time></trkpt>
        <trkpt lat="28.8182565" lon="104.7215003"><ele>367.27</ele><time>2026-03-22T00:54:14.000Z</time></trkpt>
        <trkpt lat="28.8183037" lon="104.7216056"><ele>369.47</ele><time>2026-03-22T00:54:22.000Z</time></trkpt>
        <trkpt lat="28.8183776" lon="104.7216806"><ele>371.51</ele><time>2026-03-22T00:54:30.000Z</time></trkpt>
        <trkpt lat="28.8184628" lon="104.7217315"><ele>373.62</ele><time>2026-03-22T00:54:38.000Z</time></trkpt>
        <trkpt lat="28.8185314" lon="104.7218031"><ele>375.62</ele><time>2026-03-22T00:54:46.000Z</time></trkpt>
        <trkpt lat="28.8185667" lon="104.7219131"><ele>377.86</ele><time>2026-03-22T00:54:56.000Z</time></trkpt>
        <trkpt lat="28.8185497" lon="104.7220382"><ele>380.04</ele><time>2026-03-22T00:55:06.000Z</time></trkpt>
        <trkpt lat="28.8185227" lon="104.7221559"><ele>382.57</ele><time>2026-03-22T00:55:16.000Z</time></trkpt>
        <trkpt lat="28.8185499" lon="104.7222654"><ele>385.83</ele><time>2026-03-22T00:55:28.000Z</time></trkpt>
        <trkpt lat="28.8185741" lon="104.7223737"><ele>387.99</ele><time>2026-03-22T00:55:36.000Z</time></trkpt>
        <trkpt lat="28.8186153" lon="104.7224827"><ele>389.38</ele><time>2026-03-22T00:55:44.000Z</time></trkpt>
        <trkpt lat="28.8186115" lon="104.7226028"><ele>390.04</ele><time>2026-03-22T00:55:52.000Z</time></trkpt>
        <trkpt lat="28.8185972" lon="104.7227253"><ele>390.6</ele><time>2026-03-22T00:56:00.000Z</time></trkpt>
        <trkpt lat="28.8185935" lon="104.7228257"><ele>392.02</ele><time>2026-03-22T00:56:08.000Z</time></trkpt>
        <trkpt lat="28.8185961" lon="104.722936"><ele>393.44</ele><time>2026-03-22T00:56:20.000Z</time></trkpt>
        <trkpt lat="28.818584" lon="104.7230404"><ele>395.67</ele><time>2026-03-22T00:56:30.000Z</time></trkpt>
        <trkpt lat="28.8186106" lon="104.7231487"><ele>398.54</ele><time>2026-03-22T00:56:54.000Z</time></trkpt>
        <trkpt lat="28.818684" lon="104.7232398"><ele>401.34</ele><time>2026-03-22T00:57:04.000Z</time></trkpt>
        <trkpt lat="28.8187558" lon="104.7233326"><ele>402.67</ele><time>2026-03-22T00:57:12.000Z</time></trkpt>
        <trkpt lat="28.8188236" lon="104.7234305"><ele>403.72</ele><time>2026-03-22T00:57:22.000Z</time></trkpt>
        <trkpt lat="28.8188925" lon="104.7235195"><ele>404.78</ele><time>2026-03-22T00:57:32.000Z</time></trkpt>
        <trkpt lat="28.8189716" lon="104.7235826"><ele>406.41</ele><time>2026-03-22T00:57:44.000Z</time></trkpt>
        <trkpt lat="28.8190597" lon="104.723656"><ele>408.6</ele><time>2026-03-22T00:58:02.000Z</time></trkpt>
        <trkpt lat="28.8191492" lon="104.7236784"><ele>411.73</ele><time>2026-03-22T00:58:12.000Z</time></trkpt>
        <trkpt lat="28.8191641" lon="104.7237635"><ele>413.88</ele><time>2026-03-22T00:58:22.000Z</time></trkpt>
        <trkpt lat="28.8191778" lon="104.7238689"><ele>414.73</ele><time>2026-03-22T00:58:30.000Z</time></trkpt>
        <trkpt lat="28.8192107" lon="104.7239866"><ele>415.21</ele><time>2026-03-22T00:58:38.000Z</time></trkpt>
        <trkpt lat="28.8192264" lon="104.7241178"><ele>415.51</ele><time>2026-03-22T00:58:46.000Z</time></trkpt>
        <trkpt lat="28.8192457" lon="104.7242454"><ele>415.81</ele><time>2026-03-22T00:58:54.000Z</time></trkpt>
        <trkpt lat="28.8192863" lon="104.7243528"><ele>416.35</ele><time>2026-03-22T00:59:02.000Z</time></trkpt>
        <trkpt lat="28.8193233" lon="104.7244571"><ele>416.64</ele><time>2026-03-22T00:59:10.000Z</time></trkpt>
        <trkpt lat="28.8193606" lon="104.7245663"><ele>417.11</ele><time>2026-03-22T00:59:18.000Z</time></trkpt>
        <trkpt lat="28.8194084" lon="104.7246762"><ele>417.38</ele><time>2026-03-22T00:59:26.000Z</time></trkpt>
        <trkpt lat="28.8194543" lon="104.7247824"><ele>417.91</ele><time>2026-03-22T00:59:34.000Z</time></trkpt>
        <trkpt lat="28.8195" lon="104.7248859"><ele>419</ele><time>2026-03-22T00:59:42.000Z</time></trkpt>
        <trkpt lat="28.8195538" lon="104.7249812"><ele>420.32</ele><time>2026-03-22T00:59:50.000Z</time></trkpt>
        <trkpt lat="28.8196219" lon="104.7250731"><ele>421.57</ele><time>2026-03-22T00:59:58.000Z</time></trkpt>
        <trkpt lat="28.8196695" lon="104.7251734"><ele>422.63</ele><time>2026-03-22T01:00:06.000Z</time></trkpt>
        <trkpt lat="28.8196999" lon="104.7252752"><ele>424.13</ele><time>2026-03-22T01:00:14.000Z</time></trkpt>
        <trkpt lat="28.819729" lon="104.7253817"><ele>425.82</ele><time>2026-03-22T01:00:24.000Z</time></trkpt>
        <trkpt lat="28.8197567" lon="104.7254959"><ele>426.83</ele><time>2026-03-22T01:00:34.000Z</time></trkpt>
        <trkpt lat="28.819765" lon="104.7255225"><ele>427.39</ele><time>2026-03-22T01:00:36.000Z</time></trkpt>
        <trkpt lat="28.8198254" lon="104.725577"><ele>427.69</ele><time>2026-03-22T01:01:44.000Z</time></trkpt>
        <trkpt lat="28.8199018" lon="104.7256726"><ele>428.04</ele><time>2026-03-22T01:01:54.000Z</time></trkpt>
        <trkpt lat="28.819978" lon="104.7257486"><ele>427.48</ele><time>2026-03-22T01:02:02.000Z</time></trkpt>
        <trkpt lat="28.8200483" lon="104.7258291"><ele>426.29</ele><time>2026-03-22T01:02:10.000Z</time></trkpt>
        <trkpt lat="28.8201179" lon="104.7259203"><ele>425.14</ele><time>2026-03-22T01:02:18.000Z</time></trkpt>
        <trkpt lat="28.8201655" lon="104.7260401"><ele>424.62</ele><time>2026-03-22T01:02:26.000Z</time></trkpt>
        <trkpt lat="28.8201934" lon="104.7261591"><ele>424.44</ele><time>2026-03-22T01:02:34.000Z</time></trkpt>
        <trkpt lat="28.8202198" lon="104.7262853"><ele>424.23</ele><time>2026-03-22T01:02:44.000Z</time></trkpt>
        <trkpt lat="28.8202571" lon="104.7264014"><ele>424.09</ele><time>2026-03-22T01:02:52.000Z</time></trkpt>
        <trkpt lat="28.8202994" lon="104.7265143"><ele>423.37</ele><time>2026-03-22T01:03:02.000Z</time></trkpt>
        <trkpt lat="28.8203443" lon="104.7266267"><ele>421.85</ele><time>2026-03-22T01:03:10.000Z</time></trkpt>
        <trkpt lat="28.8203994" lon="104.7267386"><ele>420.54</ele><time>2026-03-22T01:03:18.000Z</time></trkpt>
        <trkpt lat="28.820469" lon="104.7268424"><ele>420.07</ele><time>2026-03-22T01:03:26.000Z</time></trkpt>
        <trkpt lat="28.8205403" lon="104.7269432"><ele>419.69</ele><time>2026-03-22T01:03:34.000Z</time></trkpt>
        <trkpt lat="28.8205924" lon="104.7270546"><ele>419.33</ele><time>2026-03-22T01:03:42.000Z</time></trkpt>
        <trkpt lat="28.8206434" lon="104.72717"><ele>418.58</ele><time>2026-03-22T01:03:50.000Z</time></trkpt>
        <trkpt lat="28.820691" lon="104.7272953"><ele>417.93</ele><time>2026-03-22T01:03:58.000Z</time></trkpt>
        <trkpt lat="28.8207271" lon="104.7274231"><ele>417.94</ele><time>2026-03-22T01:04:06.000Z</time></trkpt>
        <trkpt lat="28.8207708" lon="104.7275334"><ele>418.64</ele><time>2026-03-22T01:04:14.000Z</time></trkpt>
        <trkpt lat="28.8208352" lon="104.7276297"><ele>419.77</ele><time>2026-03-22T01:04:24.000Z</time></trkpt>
        <trkpt lat="28.8209091" lon="104.727708"><ele>421.04</ele><time>2026-03-22T01:04:32.000Z</time></trkpt>
        <trkpt lat="28.8209841" lon="104.7277982"><ele>422.14</ele><time>2026-03-22T01:04:40.000Z</time></trkpt>
        <trkpt lat="28.8210413" lon="104.7279049"><ele>422.69</ele><time>2026-03-22T01:04:48.000Z</time></trkpt>
        <trkpt lat="28.8210956" lon="104.7280098"><ele>423.41</ele><time>2026-03-22T01:04:56.000Z</time></trkpt>
        <trkpt lat="28.8211385" lon="104.7281198"><ele>423.99</ele><time>2026-03-22T01:05:08.000Z</time></trkpt>
        <trkpt lat="28.8211752" lon="104.7282237"><ele>424.23</ele><time>2026-03-22T01:05:18.000Z</time></trkpt>
        <trkpt lat="28.8212253" lon="104.728319"><ele>424.64</ele><time>2026-03-22T01:05:26.000Z</time></trkpt>
        <trkpt lat="28.8212877" lon="104.7284164"><ele>424.34</ele><time>2026-03-22T01:05:34.000Z</time></trkpt>
        <trkpt lat="28.8213495" lon="104.7285232"><ele>423.69</ele><time>2026-03-22T01:05:42.000Z</time></trkpt>
        <trkpt lat="28.8214114" lon="104.7286285"><ele>422.84</ele><time>2026-03-22T01:05:50.000Z</time></trkpt>
        <trkpt lat="28.8214708" lon="104.728727"><ele>421.53</ele><time>2026-03-22T01:05:58.000Z</time></trkpt>
        <trkpt lat="28.8215037" lon="104.7288432"><ele>419.85</ele><time>2026-03-22T01:06:04.000Z</time></trkpt>
        <trkpt lat="28.8214971" lon="104.7289751"><ele>418.44</ele><time>2026-03-22T01:06:10.000Z</time></trkpt>
        <trkpt lat="28.8214641" lon="104.7291024"><ele>418.1</ele><time>2026-03-22T01:06:18.000Z</time></trkpt>
        <trkpt lat="28.8214052" lon="104.7292237"><ele>418.28</ele><time>2026-03-22T01:06:28.000Z</time></trkpt>
        <trkpt lat="28.8213499" lon="104.7293249"><ele>419.2</ele><time>2026-03-22T01:06:34.000Z</time></trkpt>
        <trkpt lat="28.8213053" lon="104.7294238"><ele>419.98</ele><time>2026-03-22T01:06:40.000Z</time></trkpt>
        <trkpt lat="28.8212838" lon="104.7295433"><ele>420.64</ele><time>2026-03-22T01:06:46.000Z</time></trkpt>
        <trkpt lat="28.8212911" lon="104.7296647"><ele>421.99</ele><time>2026-03-22T01:06:54.000Z</time></trkpt>
        <trkpt lat="28.8213112" lon="104.7297734"><ele>422.97</ele><time>2026-03-22T01:07:00.000Z</time></trkpt>
        <trkpt lat="28.8213251" lon="104.7298886"><ele>423.72</ele><time>2026-03-22T01:07:08.000Z</time></trkpt>
        <trkpt lat="28.8213472" lon="104.7300006"><ele>424.4</ele><time>2026-03-22T01:07:16.000Z</time></trkpt>
        <trkpt lat="28.8213537" lon="104.7301181"><ele>424.23</ele><time>2026-03-22T01:07:24.000Z</time></trkpt>
        <trkpt lat="28.8213522" lon="104.7302447"><ele>423.77</ele><time>2026-03-22T01:07:32.000Z</time></trkpt>
        <trkpt lat="28.8213559" lon="104.7303622"><ele>423.23</ele><time>2026-03-22T01:07:40.000Z</time></trkpt>
        <trkpt lat="28.821367" lon="104.7304776"><ele>422.67</ele><time>2026-03-22T01:07:48.000Z</time></trkpt>
        <trkpt lat="28.8213895" lon="104.7305972"><ele>421.73</ele><time>2026-03-22T01:07:56.000Z</time></trkpt>
        <trkpt lat="28.8214215" lon="104.7307235"><ele>420.63</ele><time>2026-03-22T01:08:04.000Z</time></trkpt>
        <trkpt lat="28.8214537" lon="104.7308501"><ele>419.27</ele><time>2026-03-22T01:08:12.000Z</time></trkpt>
        <trkpt lat="28.8215038" lon="104.73095"><ele>418.14</ele><time>2026-03-22T01:08:22.000Z</time></trkpt>
        <trkpt lat="28.8215541" lon="104.7310439"><ele>416.75</ele><time>2026-03-22T01:08:30.000Z</time></trkpt>
        <trkpt lat="28.8215737" lon="104.7311624"><ele>415.77</ele><time>2026-03-22T01:08:38.000Z</time></trkpt>
        <trkpt lat="28.8215484" lon="104.7312848"><ele>414.41</ele><time>2026-03-22T01:08:46.000Z</time></trkpt>
        <trkpt lat="28.8215085" lon="104.7314053"><ele>413.24</ele><time>2026-03-22T01:08:54.000Z</time></trkpt>
        <trkpt lat="28.8214921" lon="104.7315297"><ele>411.77</ele><time>2026-03-22T01:09:02.000Z</time></trkpt>
        <trkpt lat="28.8215084" lon="104.7316508"><ele>410.7</ele><time>2026-03-22T01:09:10.000Z</time></trkpt>
        <trkpt lat="28.8215439" lon="104.7317678"><ele>409.45</ele><time>2026-03-22T01:09:20.000Z</time></trkpt>
        <trkpt lat="28.8215641" lon="104.7318847"><ele>407.54</ele><time>2026-03-22T01:09:26.000Z</time></trkpt>
        <trkpt lat="28.8215796" lon="104.7319957"><ele>406.32</ele><time>2026-03-22T01:09:30.000Z</time></trkpt>
        <trkpt lat="28.8215919" lon="104.7321031"><ele>405.48</ele><time>2026-03-22T01:09:34.000Z</time></trkpt>
        <trkpt lat="28.8216162" lon="104.7322184"><ele>405.69</ele><time>2026-03-22T01:09:44.000Z</time></trkpt>
        <trkpt lat="28.8216513" lon="104.7323395"><ele>404.26</ele><time>2026-03-22T01:09:54.000Z</time></trkpt>
        <trkpt lat="28.8216894" lon="104.7324539"><ele>402.04</ele><time>2026-03-22T01:10:02.000Z</time></trkpt>
        <trkpt lat="28.8217166" lon="104.7325731"><ele>400.08</ele><time>2026-03-22T01:10:10.000Z</time></trkpt>
        <trkpt lat="28.8217044" lon="104.7326925"><ele>398.64</ele><time>2026-03-22T01:10:18.000Z</time></trkpt>
        <trkpt lat="28.8216962" lon="104.732809"><ele>397.57</ele><time>2026-03-22T01:10:28.000Z</time></trkpt>
        <trkpt lat="28.8217015" lon="104.7329195"><ele>397.15</ele><time>2026-03-22T01:10:38.000Z</time></trkpt>
        <trkpt lat="28.8216959" lon="104.7330283"><ele>396.04</ele><time>2026-03-22T01:10:48.000Z</time></trkpt>
        <trkpt lat="28.8217378" lon="104.7331192"><ele>395.76</ele><time>2026-03-22T01:11:22.000Z</time></trkpt>
        <trkpt lat="28.821809" lon="104.733174"><ele>394.3</ele><time>2026-03-22T01:11:32.000Z</time></trkpt>
        <trkpt lat="28.8218553" lon="104.7332565"><ele>392.4</ele><time>2026-03-22T01:12:46.000Z</time></trkpt>
        <trkpt lat="28.821837" lon="104.7333742"><ele>390.37</ele><time>2026-03-22T01:13:36.000Z</time></trkpt>
        <trkpt lat="28.8218315" lon="104.733402"><ele>384.7</ele><time>2026-03-22T01:13:40.000Z</time></trkpt>
        <trkpt lat="28.8218587" lon="104.7334908"><ele>381.38</ele><time>2026-03-22T01:14:26.000Z</time></trkpt>
        <trkpt lat="28.821892" lon="104.7335568"><ele>377.48</ele><time>2026-03-22T01:14:40.000Z</time></trkpt>
        <trkpt lat="28.8219163" lon="104.7336542"><ele>374.5</ele><time>2026-03-22T01:15:00.000Z</time></trkpt>
        <trkpt lat="28.8219517" lon="104.7337454"><ele>371.63</ele><time>2026-03-22T01:15:16.000Z</time></trkpt>
        <trkpt lat="28.8219873" lon="104.733852"><ele>369.03</ele><time>2026-03-22T01:16:18.000Z</time></trkpt>
        <trkpt lat="28.8219875" lon="104.7338931"><ele>366.04</ele><time>2026-03-22T01:16:24.000Z</time></trkpt>
        <trkpt lat="28.8219901" lon="104.7340026"><ele>364.84</ele><time>2026-03-22T01:18:12.000Z</time></trkpt>
        <trkpt lat="28.8219774" lon="104.7341163"><ele>361.28</ele><time>2026-03-22T01:19:14.000Z</time></trkpt>
        <trkpt lat="28.8219261" lon="104.7342021"><ele>355.63</ele><time>2026-03-22T01:20:26.000Z</time></trkpt>
        <trkpt lat="28.8220007" lon="104.7342637"><ele>348.49</ele><time>2026-03-22T01:20:44.000Z</time></trkpt>
        <trkpt lat="28.8219312" lon="104.7343044"><ele>342.94</ele><time>2026-03-22T01:21:10.000Z</time></trkpt>
        <trkpt lat="28.8218629" lon="104.7343951"><ele>338.92</ele><time>2026-03-22T01:21:22.000Z</time></trkpt>
        <trkpt lat="28.8218263" lon="104.7345021"><ele>335.45</ele><time>2026-03-22T01:21:34.000Z</time></trkpt>
        <trkpt lat="28.821809" lon="104.7346123"><ele>332.76</ele><time>2026-03-22T01:21:46.000Z</time></trkpt>
        <trkpt lat="28.8218464" lon="104.7347138"><ele>329.37</ele><time>2026-03-22T01:22:04.000Z</time></trkpt>
        <trkpt lat="28.8218311" lon="104.7348249"><ele>324.75</ele><time>2026-03-22T01:22:14.000Z</time></trkpt>
        <trkpt lat="28.821821" lon="104.7349487"><ele>321.52</ele><time>2026-03-22T01:22:22.000Z</time></trkpt>
        <trkpt lat="28.8218217" lon="104.7349761"><ele>319.7</ele><time>2026-03-22T01:22:26.000Z</time></trkpt>
        <trkpt lat="28.8217512" lon="104.7349804"><ele>318.48</ele><time>2026-03-22T01:22:36.000Z</time></trkpt>
        <trkpt lat="28.8216619" lon="104.7350039"><ele>316.88</ele><time>2026-03-22T01:22:46.000Z</time></trkpt>
        <trkpt lat="28.8216648" lon="104.7350858"><ele>316.76</ele><time>2026-03-22T01:22:56.000Z</time></trkpt>
        <trkpt lat="28.8217084" lon="104.7351996"><ele>315.71</ele><time>2026-03-22T01:23:06.000Z</time></trkpt>
        <trkpt lat="28.8217476" lon="104.7353088"><ele>313.8</ele><time>2026-03-22T01:23:14.000Z</time></trkpt>
        <trkpt lat="28.8218001" lon="104.7354132"><ele>312.73</ele><time>2026-03-22T01:23:22.000Z</time></trkpt>
        <trkpt lat="28.8218483" lon="104.735517"><ele>312.06</ele><time>2026-03-22T01:23:30.000Z</time></trkpt>
        <trkpt lat="28.8218843" lon="104.7356249"><ele>311.29</ele><time>2026-03-22T01:23:38.000Z</time></trkpt>
        <trkpt lat="28.821921" lon="104.7356514"><ele>310.75</ele><time>2026-03-22T01:23:42.000Z</time></trkpt>
        <trkpt lat="28.8219654" lon="104.7357305"><ele>310.79</ele><time>2026-03-22T01:23:56.000Z</time></trkpt>
        <trkpt lat="28.8220501" lon="104.7357197"><ele>309.63</ele><time>2026-03-22T01:24:08.000Z</time></trkpt>
        <trkpt lat="28.82215" lon="104.7356576"><ele>307.99</ele><time>2026-03-22T01:24:16.000Z</time></trkpt>
        <trkpt lat="28.8222433" lon="104.7356062"><ele>306.9</ele><time>2026-03-22T01:24:22.000Z</time></trkpt>
        <trkpt lat="28.8223418" lon="104.735571"><ele>305.95</ele><time>2026-03-22T01:24:30.000Z</time></trkpt>
        <trkpt lat="28.8224369" lon="104.7355574"><ele>305.2</ele><time>2026-03-22T01:24:38.000Z</time></trkpt>
        <trkpt lat="28.8225375" lon="104.7355452"><ele>304.83</ele><time>2026-03-22T01:24:46.000Z</time></trkpt>
        <trkpt lat="28.8226331" lon="104.7355012"><ele>305.08</ele><time>2026-03-22T01:24:54.000Z</time></trkpt>
        <trkpt lat="28.8227119" lon="104.7354199"><ele>305.69</ele><time>2026-03-22T01:25:02.000Z</time></trkpt>
        <trkpt lat="28.8227546" lon="104.7353084"><ele>306.54</ele><time>2026-03-22T01:25:10.000Z</time></trkpt>
        <trkpt lat="28.822779" lon="104.7351809"><ele>306.89</ele><time>2026-03-22T01:25:18.000Z</time></trkpt>
        <trkpt lat="28.8228103" lon="104.7350621"><ele>308.13</ele><time>2026-03-22T01:25:30.000Z</time></trkpt>
        <trkpt lat="28.8228762" lon="104.7349655"><ele>309.89</ele><time>2026-03-22T01:25:40.000Z</time></trkpt>
        <trkpt lat="28.8229522" lon="104.7348829"><ele>311.1</ele><time>2026-03-22T01:25:48.000Z</time></trkpt>
        <trkpt lat="28.8230456" lon="104.7348268"><ele>311.64</ele><time>2026-03-22T01:25:56.000Z</time></trkpt>
        <trkpt lat="28.8231439" lon="104.7348024"><ele>312.53</ele><time>2026-03-22T01:26:04.000Z</time></trkpt>
        <trkpt lat="28.8232495" lon="104.7348074"><ele>313.06</ele><time>2026-03-22T01:26:12.000Z</time></trkpt>
        <trkpt lat="28.8233534" lon="104.7348102"><ele>313.2</ele><time>2026-03-22T01:26:20.000Z</time></trkpt>
        <trkpt lat="28.8234481" lon="104.7348185"><ele>314.15</ele><time>2026-03-22T01:26:28.000Z</time></trkpt>
        <trkpt lat="28.8235542" lon="104.7348012"><ele>314.21</ele><time>2026-03-22T01:26:36.000Z</time></trkpt>
        <trkpt lat="28.8236679" lon="104.7347888"><ele>313.37</ele><time>2026-03-22T01:26:44.000Z</time></trkpt>
        <trkpt lat="28.8237648" lon="104.7347769"><ele>312.88</ele><time>2026-03-22T01:26:50.000Z</time></trkpt>
        <trkpt lat="28.823855" lon="104.734753"><ele>312.97</ele><time>2026-03-22T01:26:56.000Z</time></trkpt>
        <trkpt lat="28.8239296" lon="104.7347302"><ele>312.99</ele><time>2026-03-22T01:27:04.000Z</time></trkpt>
        <trkpt lat="28.8240225" lon="104.7347267"><ele>313.6</ele><time>2026-03-22T01:27:12.000Z</time></trkpt>
        <trkpt lat="28.824111" lon="104.7346757"><ele>313.27</ele><time>2026-03-22T01:27:20.000Z</time></trkpt>
        <trkpt lat="28.8241806" lon="104.7346015"><ele>313.47</ele><time>2026-03-22T01:27:28.000Z</time></trkpt>
        <trkpt lat="28.8242221" lon="104.7345065"><ele>315.02</ele><time>2026-03-22T01:27:36.000Z</time></trkpt>
        <trkpt lat="28.8242473" lon="104.7343977"><ele>315.16</ele><time>2026-03-22T01:27:44.000Z</time></trkpt>
        <trkpt lat="28.824301" lon="104.7342956"><ele>314.27</ele><time>2026-03-22T01:27:52.000Z</time></trkpt>
        <trkpt lat="28.8243862" lon="104.7342399"><ele>313.62</ele><time>2026-03-22T01:28:00.000Z</time></trkpt>
        <trkpt lat="28.8244561" lon="104.7341477"><ele>313.21</ele><time>2026-03-22T01:28:08.000Z</time></trkpt>
        <trkpt lat="28.8245331" lon="104.7340518"><ele>313.05</ele><time>2026-03-22T01:28:16.000Z</time></trkpt>
        <trkpt lat="28.824609" lon="104.7339556"><ele>312.4</ele><time>2026-03-22T01:28:24.000Z</time></trkpt>
        <trkpt lat="28.8247026" lon="104.7338867"><ele>311.8</ele><time>2026-03-22T01:28:32.000Z</time></trkpt>
        <trkpt lat="28.8247822" lon="104.7337986"><ele>311.4</ele><time>2026-03-22T01:28:40.000Z</time></trkpt>
        <trkpt lat="28.8248646" lon="104.7337162"><ele>311.04</ele><time>2026-03-22T01:28:48.000Z</time></trkpt>
        <trkpt lat="28.8249526" lon="104.7336645"><ele>310.56</ele><time>2026-03-22T01:28:56.000Z</time></trkpt>
        <trkpt lat="28.825034" lon="104.7335944"><ele>310.28</ele><time>2026-03-22T01:29:04.000Z</time></trkpt>
        <trkpt lat="28.8251187" lon="104.733508"><ele>308.57</ele><time>2026-03-22T01:29:12.000Z</time></trkpt>
        <trkpt lat="28.8252059" lon="104.733441"><ele>307.89</ele><time>2026-03-22T01:29:20.000Z</time></trkpt>
        <trkpt lat="28.8252975" lon="104.7334026"><ele>307.22</ele><time>2026-03-22T01:29:28.000Z</time></trkpt>
        <trkpt lat="28.825389" lon="104.733352"><ele>306.61</ele><time>2026-03-22T01:29:36.000Z</time></trkpt>
        <trkpt lat="28.8254802" lon="104.7333124"><ele>306.96</ele><time>2026-03-22T01:29:44.000Z</time></trkpt>
        <trkpt lat="28.8255625" lon="104.7332467"><ele>306.84</ele><time>2026-03-22T01:29:52.000Z</time></trkpt>
        <trkpt lat="28.8256322" lon="104.7331671"><ele>307.2</ele><time>2026-03-22T01:30:00.000Z</time></trkpt>
        <trkpt lat="28.8256555" lon="104.73313"><ele>308.6</ele><time>2026-03-22T01:30:04.000Z</time></trkpt>
        <trkpt lat="28.8257254" lon="104.7331"><ele>309.41</ele><time>2026-03-22T01:30:18.000Z</time></trkpt>
        <trkpt lat="28.825821" lon="104.7330679"><ele>310.16</ele><time>2026-03-22T01:30:26.000Z</time></trkpt>
        <trkpt lat="28.8259239" lon="104.7330547"><ele>311.32</ele><time>2026-03-22T01:30:34.000Z</time></trkpt>
        <trkpt lat="28.8260163" lon="104.7330091"><ele>312.86</ele><time>2026-03-22T01:30:42.000Z</time></trkpt>
        <trkpt lat="28.8261009" lon="104.7329492"><ele>313.77</ele><time>2026-03-22T01:30:50.000Z</time></trkpt>
        <trkpt lat="28.8261677" lon="104.7329278"><ele>314.79</ele><time>2026-03-22T01:30:58.000Z</time></trkpt>
        <trkpt lat="28.8262569" lon="104.7329602"><ele>315.61</ele><time>2026-03-22T01:31:12.000Z</time></trkpt>
        <trkpt lat="28.8263633" lon="104.7329635"><ele>315.26</ele><time>2026-03-22T01:31:20.000Z</time></trkpt>
        <trkpt lat="28.8264572" lon="104.7329376"><ele>315.58</ele><time>2026-03-22T01:31:28.000Z</time></trkpt>
        <trkpt lat="28.8265237" lon="104.7328667"><ele>315.29</ele><time>2026-03-22T01:31:36.000Z</time></trkpt>
        <trkpt lat="28.8266045" lon="104.7328379"><ele>315.61</ele><time>2026-03-22T01:31:50.000Z</time></trkpt>
        <trkpt lat="28.8266919" lon="104.7328622"><ele>316.41</ele><time>2026-03-22T01:32:02.000Z</time></trkpt>
        <trkpt lat="28.8267865" lon="104.7328949"><ele>316.83</ele><time>2026-03-22T01:32:54.000Z</time></trkpt>
        <trkpt lat="28.8268702" lon="104.732958"><ele>323.69</ele><time>2026-03-22T01:33:10.000Z</time></trkpt>
        <trkpt lat="28.8269468" lon="104.7330221"><ele>328.98</ele><time>2026-03-22T01:33:22.000Z</time></trkpt>
        <trkpt lat="28.8270153" lon="104.7330961"><ele>332.52</ele><time>2026-03-22T01:33:32.000Z</time></trkpt>
        <trkpt lat="28.8270322" lon="104.7331945"><ele>334.33</ele><time>2026-03-22T01:33:38.000Z</time></trkpt>
        <trkpt lat="28.8270611" lon="104.7333065"><ele>336.05</ele><time>2026-03-22T01:33:46.000Z</time></trkpt>
        <trkpt lat="28.8270931" lon="104.7333962"><ele>337.67</ele><time>2026-03-22T01:33:56.000Z</time></trkpt>
        <trkpt lat="28.8271686" lon="104.7334517"><ele>339.1</ele><time>2026-03-22T01:34:08.000Z</time></trkpt>
        <trkpt lat="28.8272469" lon="104.733512"><ele>340.92</ele><time>2026-03-22T01:34:52.000Z</time></trkpt>
        <trkpt lat="28.827336" lon="104.7335644"><ele>341.53</ele><time>2026-03-22T01:35:02.000Z</time></trkpt>
        <trkpt lat="28.8274011" lon="104.7336571"><ele>343.52</ele><time>2026-03-22T01:35:14.000Z</time></trkpt>
        <trkpt lat="28.8274824" lon="104.7337257"><ele>344.91</ele><time>2026-03-22T01:35:20.000Z</time></trkpt>
        <trkpt lat="28.8275722" lon="104.7337947"><ele>347.93</ele><time>2026-03-22T01:35:30.000Z</time></trkpt>
        <trkpt lat="28.8276522" lon="104.7338581"><ele>351.23</ele><time>2026-03-22T01:35:40.000Z</time></trkpt>
        <trkpt lat="28.8277017" lon="104.7338763"><ele>354.49</ele><time>2026-03-22T01:35:50.000Z</time></trkpt>
        <trkpt lat="28.8277625" lon="104.7339536"><ele>357.1</ele><time>2026-03-22T01:36:06.000Z</time></trkpt>
        <trkpt lat="28.8278462" lon="104.7340309"><ele>358.9</ele><time>2026-03-22T01:36:16.000Z</time></trkpt>
        <trkpt lat="28.827934" lon="104.7340992"><ele>361.17</ele><time>2026-03-22T01:36:24.000Z</time></trkpt>
        <trkpt lat="28.8280243" lon="104.7341352"><ele>362.4</ele><time>2026-03-22T01:36:32.000Z</time></trkpt>
        <trkpt lat="28.8281249" lon="104.7341403"><ele>363.81</ele><time>2026-03-22T01:36:44.000Z</time></trkpt>
        <trkpt lat="28.8282181" lon="104.7341138"><ele>365.83</ele><time>2026-03-22T01:36:54.000Z</time></trkpt>
        <trkpt lat="28.828311" lon="104.7340598"><ele>367.87</ele><time>2026-03-22T01:37:04.000Z</time></trkpt>
        <trkpt lat="28.8284007" lon="104.7340155"><ele>369.99</ele><time>2026-03-22T01:37:12.000Z</time></trkpt>
        <trkpt lat="28.82849" lon="104.7339706"><ele>371.74</ele><time>2026-03-22T01:37:20.000Z</time></trkpt>
        <trkpt lat="28.828535" lon="104.7340013"><ele>373.31</ele><time>2026-03-22T01:37:30.000Z</time></trkpt>
        <trkpt lat="28.8285667" lon="104.7339371"><ele>375.64</ele><time>2026-03-22T01:37:36.000Z</time></trkpt>
        <trkpt lat="28.8286135" lon="104.7338308"><ele>376.88</ele><time>2026-03-22T01:37:44.000Z</time></trkpt>
        <trkpt lat="28.8286297" lon="104.73378"><ele>377.81</ele><time>2026-03-22T01:37:48.000Z</time></trkpt>
        <trkpt lat="28.8286872" lon="104.7337249"><ele>378.14</ele><time>2026-03-22T01:38:00.000Z</time></trkpt>
        <trkpt lat="28.8287848" lon="104.7336998"><ele>378.49</ele><time>2026-03-22T01:38:08.000Z</time></trkpt>
        <trkpt lat="28.8288942" lon="104.7336928"><ele>379.19</ele><time>2026-03-22T01:38:16.000Z</time></trkpt>
        <trkpt lat="28.8289023" lon="104.733615"><ele>379.45</ele><time>2026-03-22T01:38:24.000Z</time></trkpt>
        <trkpt lat="28.8288862" lon="104.7334977"><ele>380.17</ele><time>2026-03-22T01:38:32.000Z</time></trkpt>
        <trkpt lat="28.8289045" lon="104.7333744"><ele>381.15</ele><time>2026-03-22T01:38:40.000Z</time></trkpt>
        <trkpt lat="28.8289377" lon="104.7332502"><ele>382.06</ele><time>2026-03-22T01:38:49.000Z</time></trkpt>
        <trkpt lat="28.8289848" lon="104.733147"><ele>383.12</ele><time>2026-03-22T01:38:58.000Z</time></trkpt>
        <trkpt lat="28.8290379" lon="104.7330403"><ele>383.89</ele><time>2026-03-22T01:39:06.000Z</time></trkpt>
        <trkpt lat="28.8291174" lon="104.7329508"><ele>384.4</ele><time>2026-03-22T01:39:14.000Z</time></trkpt>
        <trkpt lat="28.8292218" lon="104.7328964"><ele>383.98</ele><time>2026-03-22T01:39:22.000Z</time></trkpt>
        <trkpt lat="28.8292698" lon="104.732812"><ele>383.41</ele><time>2026-03-22T01:39:30.000Z</time></trkpt>
        <trkpt lat="28.8292751" lon="104.7327031"><ele>382.83</ele><time>2026-03-22T01:39:38.000Z</time></trkpt>
        <trkpt lat="28.8292113" lon="104.7326288"><ele>382.48</ele><time>2026-03-22T01:39:48.000Z</time></trkpt>
        <trkpt lat="28.8291364" lon="104.7325387"><ele>382.96</ele><time>2026-03-22T01:40:00.000Z</time></trkpt>
        <trkpt lat="28.829131" lon="104.7324343"><ele>383.51</ele><time>2026-03-22T01:40:10.000Z</time></trkpt>
        <trkpt lat="28.8291685" lon="104.7323352"><ele>384.98</ele><time>2026-03-22T01:40:22.000Z</time></trkpt>
        <trkpt lat="28.8291973" lon="104.7322252"><ele>386.77</ele><time>2026-03-22T01:40:30.000Z</time></trkpt>
        <trkpt lat="28.8292293" lon="104.7321054"><ele>387.68</ele><time>2026-03-22T01:40:38.000Z</time></trkpt>
        <trkpt lat="28.8292509" lon="104.731985"><ele>388.63</ele><time>2026-03-22T01:40:46.000Z</time></trkpt>
        <trkpt lat="28.829277" lon="104.7318659"><ele>389.21</ele><time>2026-03-22T01:40:54.000Z</time></trkpt>
        <trkpt lat="28.829305" lon="104.7317427"><ele>389.47</ele><time>2026-03-22T01:41:02.000Z</time></trkpt>
        <trkpt lat="28.8293332" lon="104.7316221"><ele>389.8</ele><time>2026-03-22T01:41:10.000Z</time></trkpt>
        <trkpt lat="28.8293569" lon="104.7315118"><ele>390.39</ele><time>2026-03-22T01:41:18.000Z</time></trkpt>
        <trkpt lat="28.8293688" lon="104.7314072"><ele>391.18</ele><time>2026-03-22T01:41:26.000Z</time></trkpt>
        <trkpt lat="28.8293657" lon="104.7312969"><ele>392.12</ele><time>2026-03-22T01:41:34.000Z</time></trkpt>
        <trkpt lat="28.8293424" lon="104.7311891"><ele>393.33</ele><time>2026-03-22T01:41:42.000Z</time></trkpt>
        <trkpt lat="28.8293241" lon="104.7310918"><ele>394.11</ele><time>2026-03-22T01:41:50.000Z</time></trkpt>
        <trkpt lat="28.8292867" lon="104.7309829"><ele>395.12</ele><time>2026-03-22T01:42:02.000Z</time></trkpt>
        <trkpt lat="28.8292567" lon="104.7308755"><ele>396.35</ele><time>2026-03-22T01:42:10.000Z</time></trkpt>
        <trkpt lat="28.8292062" lon="104.7307926"><ele>397.05</ele><time>2026-03-22T01:42:22.000Z</time></trkpt>
        <trkpt lat="28.8291427" lon="104.7306991"><ele>397.99</ele><time>2026-03-22T01:42:35.000Z</time></trkpt>
        <trkpt lat="28.829097" lon="104.7305924"><ele>399.25</ele><time>2026-03-22T01:42:43.000Z</time></trkpt>
        <trkpt lat="28.8290743" lon="104.7304685"><ele>400.11</ele><time>2026-03-22T01:42:51.000Z</time></trkpt>
        <trkpt lat="28.8290826" lon="104.7303442"><ele>400.49</ele><time>2026-03-22T01:42:59.000Z</time></trkpt>
        <trkpt lat="28.8291022" lon="104.7302139"><ele>400.74</ele><time>2026-03-22T01:43:07.000Z</time></trkpt>
        <trkpt lat="28.8291339" lon="104.7301075"><ele>400.82</ele><time>2026-03-22T01:43:13.000Z</time></trkpt>
        <trkpt lat="28.829178" lon="104.7299916"><ele>400.97</ele><time>2026-03-22T01:43:21.000Z</time></trkpt>
        <trkpt lat="28.829216" lon="104.729868"><ele>401.02</ele><time>2026-03-22T01:43:29.000Z</time></trkpt>
        <trkpt lat="28.8292238" lon="104.7297451"><ele>400.96</ele><time>2026-03-22T01:43:37.000Z</time></trkpt>
        <trkpt lat="28.829175" lon="104.7296438"><ele>400.82</ele><time>2026-03-22T01:43:45.000Z</time></trkpt>
        <trkpt lat="28.8291018" lon="104.7295497"><ele>399.98</ele><time>2026-03-22T01:43:53.000Z</time></trkpt>
        <trkpt lat="28.8290447" lon="104.7294439"><ele>399.49</ele><time>2026-03-22T01:44:01.000Z</time></trkpt>
        <trkpt lat="28.8290099" lon="104.7293311"><ele>399.53</ele><time>2026-03-22T01:44:09.000Z</time></trkpt>
        <trkpt lat="28.8289949" lon="104.7292092"><ele>399.43</ele><time>2026-03-22T01:44:17.000Z</time></trkpt>
        <trkpt lat="28.8290181" lon="104.7290903"><ele>399.09</ele><time>2026-03-22T01:44:25.000Z</time></trkpt>
        <trkpt lat="28.8290568" lon="104.7289731"><ele>398.85</ele><time>2026-03-22T01:44:33.000Z</time></trkpt>
        <trkpt lat="28.829093" lon="104.7288525"><ele>398.43</ele><time>2026-03-22T01:44:41.000Z</time></trkpt>
        <trkpt lat="28.8291195" lon="104.7287241"><ele>397.98</ele><time>2026-03-22T01:44:49.000Z</time></trkpt>
        <trkpt lat="28.8291318" lon="104.728591"><ele>397.57</ele><time>2026-03-22T01:44:57.000Z</time></trkpt>
        <trkpt lat="28.8291476" lon="104.7284615"><ele>396.78</ele><time>2026-03-22T01:45:05.000Z</time></trkpt>
        <trkpt lat="28.8291624" lon="104.7283303"><ele>396.49</ele><time>2026-03-22T01:45:13.000Z</time></trkpt>
        <trkpt lat="28.8291852" lon="104.728206"><ele>396.38</ele><time>2026-03-22T01:45:21.000Z</time></trkpt>
        <trkpt lat="28.8292096" lon="104.7280866"><ele>396.25</ele><time>2026-03-22T01:45:29.000Z</time></trkpt>
        <trkpt lat="28.8292224" lon="104.7279704"><ele>396.24</ele><time>2026-03-22T01:45:37.000Z</time></trkpt>
        <trkpt lat="28.8292378" lon="104.7278578"><ele>396.22</ele><time>2026-03-22T01:45:45.000Z</time></trkpt>
        <trkpt lat="28.8292402" lon="104.7277433"><ele>396.31</ele><time>2026-03-22T01:45:53.000Z</time></trkpt>
        <trkpt lat="28.8292331" lon="104.7276257"><ele>395.97</ele><time>2026-03-22T01:46:01.000Z</time></trkpt>
        <trkpt lat="28.8292077" lon="104.727509"><ele>395.48</ele><time>2026-03-22T01:46:09.000Z</time></trkpt>
        <trkpt lat="28.8291534" lon="104.7274089"><ele>394.93</ele><time>2026-03-22T01:46:17.000Z</time></trkpt>
        <trkpt lat="28.8290735" lon="104.7273286"><ele>394.68</ele><time>2026-03-22T01:46:25.000Z</time></trkpt>
        <trkpt lat="28.8289978" lon="104.7272403"><ele>394.06</ele><time>2026-03-22T01:46:33.000Z</time></trkpt>
        <trkpt lat="28.8289309" lon="104.7271388"><ele>393.67</ele><time>2026-03-22T01:46:41.000Z</time></trkpt>
        <trkpt lat="28.8288922" lon="104.7270144"><ele>393.33</ele><time>2026-03-22T01:46:49.000Z</time></trkpt>
        <trkpt lat="28.8288677" lon="104.7268926"><ele>392.68</ele><time>2026-03-22T01:46:57.000Z</time></trkpt>
        <trkpt lat="28.8288763" lon="104.7267849"><ele>391.83</ele><time>2026-03-22T01:47:03.000Z</time></trkpt>
        <trkpt lat="28.8288848" lon="104.7266649"><ele>391.28</ele><time>2026-03-22T01:47:11.000Z</time></trkpt>
        <trkpt lat="28.828848" lon="104.7265451"><ele>390.14</ele><time>2026-03-22T01:47:19.000Z</time></trkpt>
        <trkpt lat="28.8287771" lon="104.726454"><ele>389.68</ele><time>2026-03-22T01:47:27.000Z</time></trkpt>
        <trkpt lat="28.8286874" lon="104.7263919"><ele>389.79</ele><time>2026-03-22T01:47:35.000Z</time></trkpt>
        <trkpt lat="28.8285875" lon="104.7263792"><ele>389.83</ele><time>2026-03-22T01:47:43.000Z</time></trkpt>
        <trkpt lat="28.8284866" lon="104.7264257"><ele>390.49</ele><time>2026-03-22T01:47:51.000Z</time></trkpt>
        <trkpt lat="28.8283929" lon="104.7265044"><ele>391.23</ele><time>2026-03-22T01:47:59.000Z</time></trkpt>
        <trkpt lat="28.828305" lon="104.7265934"><ele>392.15</ele><time>2026-03-22T01:48:07.000Z</time></trkpt>
        <trkpt lat="28.8282178" lon="104.7266698"><ele>393.16</ele><time>2026-03-22T01:48:15.000Z</time></trkpt>
        <trkpt lat="28.8281277" lon="104.7266903"><ele>394.13</ele><time>2026-03-22T01:48:23.000Z</time></trkpt>
        <trkpt lat="28.8280569" lon="104.7266281"><ele>394.98</ele><time>2026-03-22T01:48:29.000Z</time></trkpt>
        <trkpt lat="28.8280259" lon="104.7265164"><ele>393.98</ele><time>2026-03-22T01:48:35.000Z</time></trkpt>
        <trkpt lat="28.828037" lon="104.7263952"><ele>393.01</ele><time>2026-03-22T01:48:41.000Z</time></trkpt>
        <trkpt lat="28.828077" lon="104.7262659"><ele>392.03</ele><time>2026-03-22T01:48:49.000Z</time></trkpt>
        <trkpt lat="28.8281336" lon="104.7261481"><ele>391.84</ele><time>2026-03-22T01:48:57.000Z</time></trkpt>
        <trkpt lat="28.8281843" lon="104.7260336"><ele>392.82</ele><time>2026-03-22T01:49:07.000Z</time></trkpt>
        <trkpt lat="28.8282107" lon="104.7259119"><ele>392.98</ele><time>2026-03-22T01:49:17.000Z</time></trkpt>
        <trkpt lat="28.8282141" lon="104.7257912"><ele>393.82</ele><time>2026-03-22T01:49:27.000Z</time></trkpt>
        <trkpt lat="28.8281684" lon="104.7256842"><ele>394.3</ele><time>2026-03-22T01:49:37.000Z</time></trkpt>
        <trkpt lat="28.8281065" lon="104.7255867"><ele>395.04</ele><time>2026-03-22T01:49:47.000Z</time></trkpt>
        <trkpt lat="28.828013" lon="104.7255203"><ele>396.03</ele><time>2026-03-22T01:49:57.000Z</time></trkpt>
        <trkpt lat="28.8279236" lon="104.7254507"><ele>397.52</ele><time>2026-03-22T01:50:07.000Z</time></trkpt>
        <trkpt lat="28.8278431" lon="104.7253644"><ele>399.27</ele><time>2026-03-22T01:50:17.000Z</time></trkpt>
        <trkpt lat="28.8278053" lon="104.7252629"><ele>401.26</ele><time>2026-03-22T01:50:25.000Z</time></trkpt>
        <trkpt lat="28.8278362" lon="104.7251564"><ele>402.93</ele><time>2026-03-22T01:50:33.000Z</time></trkpt>
        <trkpt lat="28.8278877" lon="104.7250533"><ele>404.45</ele><time>2026-03-22T01:50:41.000Z</time></trkpt>
        <trkpt lat="28.8279428" lon="104.7249579"><ele>406.21</ele><time>2026-03-22T01:50:49.000Z</time></trkpt>
        <trkpt lat="28.8279884" lon="104.724861"><ele>407.74</ele><time>2026-03-22T01:50:57.000Z</time></trkpt>
        <trkpt lat="28.8279907" lon="104.7247512"><ele>409.28</ele><time>2026-03-22T01:51:07.000Z</time></trkpt>
        <trkpt lat="28.8279232" lon="104.7246966"><ele>410.44</ele><time>2026-03-22T01:51:15.000Z</time></trkpt>
        <trkpt lat="28.8278222" lon="104.7247154"><ele>411.52</ele><time>2026-03-22T01:51:23.000Z</time></trkpt>
        <trkpt lat="28.8277182" lon="104.7247688"><ele>413.18</ele><time>2026-03-22T01:51:31.000Z</time></trkpt>
        <trkpt lat="28.8276206" lon="104.7248262"><ele>414.76</ele><time>2026-03-22T01:51:39.000Z</time></trkpt>
        <trkpt lat="28.8275214" lon="104.7248953"><ele>415.71</ele><time>2026-03-22T01:51:49.000Z</time></trkpt>
        <trkpt lat="28.8274357" lon="104.7249583"><ele>416.44</ele><time>2026-03-22T01:51:57.000Z</time></trkpt>
        <trkpt lat="28.8273476" lon="104.7250127"><ele>417.02</ele><time>2026-03-22T01:52:05.000Z</time></trkpt>
        <trkpt lat="28.8272576" lon="104.7250558"><ele>417.91</ele><time>2026-03-22T01:52:13.000Z</time></trkpt>
        <trkpt lat="28.8271684" lon="104.725086"><ele>419.49</ele><time>2026-03-22T01:52:21.000Z</time></trkpt>
        <trkpt lat="28.827078" lon="104.7250932"><ele>421.82</ele><time>2026-03-22T01:52:29.000Z</time></trkpt>
        <trkpt lat="28.8269748" lon="104.7250844"><ele>424.61</ele><time>2026-03-22T01:52:39.000Z</time></trkpt>
        <trkpt lat="28.8268835" lon="104.7250503"><ele>427.07</ele><time>2026-03-22T01:52:47.000Z</time></trkpt>
        <trkpt lat="28.8267856" lon="104.725001"><ele>429.02</ele><time>2026-03-22T01:52:57.000Z</time></trkpt>
        <trkpt lat="28.8266955" lon="104.72496"><ele>430.97</ele><time>2026-03-22T01:53:05.000Z</time></trkpt>
        <trkpt lat="28.8266038" lon="104.7249132"><ele>432.54</ele><time>2026-03-22T01:53:13.000Z</time></trkpt>
        <trkpt lat="28.8265144" lon="104.7248816"><ele>433.65</ele><time>2026-03-22T01:53:21.000Z</time></trkpt>
        <trkpt lat="28.8264118" lon="104.7248543"><ele>434.56</ele><time>2026-03-22T01:53:31.000Z</time></trkpt>
        <trkpt lat="28.826309" lon="104.7248453"><ele>435.03</ele><time>2026-03-22T01:53:39.000Z</time></trkpt>
        <trkpt lat="28.8262106" lon="104.7248506"><ele>435.32</ele><time>2026-03-22T01:53:47.000Z</time></trkpt>
        <trkpt lat="28.8261122" lon="104.7248832"><ele>435.71</ele><time>2026-03-22T01:53:57.000Z</time></trkpt>
        <trkpt lat="28.8260206" lon="104.7249163"><ele>436.29</ele><time>2026-03-22T01:54:05.000Z</time></trkpt>
        <trkpt lat="28.8259279" lon="104.7249558"><ele>437.12</ele><time>2026-03-22T01:54:13.000Z</time></trkpt>
        <trkpt lat="28.8258292" lon="104.7249824"><ele>438.55</ele><time>2026-03-22T01:54:21.000Z</time></trkpt>
        <trkpt lat="28.8257314" lon="104.7249874"><ele>439.89</ele><time>2026-03-22T01:54:29.000Z</time></trkpt>
        <trkpt lat="28.8256419" lon="104.7249651"><ele>441.01</ele><time>2026-03-22T01:54:37.000Z</time></trkpt>
        <trkpt lat="28.8255619" lon="104.7249035"><ele>441.39</ele><time>2026-03-22T01:54:45.000Z</time></trkpt>
        <trkpt lat="28.8254904" lon="104.7248199"><ele>440.92</ele><time>2026-03-22T01:54:53.000Z</time></trkpt>
        <trkpt lat="28.8254414" lon="104.7247104"><ele>440.88</ele><time>2026-03-22T01:55:01.000Z</time></trkpt>
        <trkpt lat="28.8254132" lon="104.7245866"><ele>440.63</ele><time>2026-03-22T01:55:09.000Z</time></trkpt>
        <trkpt lat="28.8253866" lon="104.7244581"><ele>440.85</ele><time>2026-03-22T01:55:17.000Z</time></trkpt>
        <trkpt lat="28.8253683" lon="104.724325"><ele>440.11</ele><time>2026-03-22T01:55:25.000Z</time></trkpt>
        <trkpt lat="28.8253443" lon="104.7241967"><ele>439.81</ele><time>2026-03-22T01:55:33.000Z</time></trkpt>
        <trkpt lat="28.8253305" lon="104.7240664"><ele>439.35</ele><time>2026-03-22T01:55:41.000Z</time></trkpt>
        <trkpt lat="28.8253153" lon="104.7239467"><ele>438.57</ele><time>2026-03-22T01:55:49.000Z</time></trkpt>
        <trkpt lat="28.8252996" lon="104.7238274"><ele>437.47</ele><time>2026-03-22T01:55:57.000Z</time></trkpt>
        <trkpt lat="28.8252868" lon="104.7237012"><ele>436.21</ele><time>2026-03-22T01:56:05.000Z</time></trkpt>
        <trkpt lat="28.8252845" lon="104.7235721"><ele>435.55</ele><time>2026-03-22T01:56:13.000Z</time></trkpt>
        <trkpt lat="28.8252688" lon="104.7234485"><ele>435.35</ele><time>2026-03-22T01:56:21.000Z</time></trkpt>
        <trkpt lat="28.8252295" lon="104.7233377"><ele>435.2</ele><time>2026-03-22T01:56:29.000Z</time></trkpt>
        <trkpt lat="28.8252176" lon="104.7232197"><ele>435.22</ele><time>2026-03-22T01:56:37.000Z</time></trkpt>
        <trkpt lat="28.8252377" lon="104.7231026"><ele>435.18</ele><time>2026-03-22T01:56:45.000Z</time></trkpt>
        <trkpt lat="28.8252693" lon="104.7229861"><ele>435.17</ele><time>2026-03-22T01:56:53.000Z</time></trkpt>
        <trkpt lat="28.8253021" lon="104.7228699"><ele>435.05</ele><time>2026-03-22T01:57:01.000Z</time></trkpt>
        <trkpt lat="28.8253465" lon="104.7227575"><ele>434.84</ele><time>2026-03-22T01:57:09.000Z</time></trkpt>
        <trkpt lat="28.8253917" lon="104.722647"><ele>434.82</ele><time>2026-03-22T01:57:17.000Z</time></trkpt>
        <trkpt lat="28.8254279" lon="104.7225371"><ele>434.67</ele><time>2026-03-22T01:57:25.000Z</time></trkpt>
        <trkpt lat="28.8254522" lon="104.7224254"><ele>435.03</ele><time>2026-03-22T01:57:33.000Z</time></trkpt>
        <trkpt lat="28.8254361" lon="104.7223201"><ele>435.53</ele><time>2026-03-22T01:57:41.000Z</time></trkpt>
        <trkpt lat="28.8253928" lon="104.7222237"><ele>437.02</ele><time>2026-03-22T01:57:49.000Z</time></trkpt>
        <trkpt lat="28.8253388" lon="104.7221221"><ele>438.34</ele><time>2026-03-22T01:57:57.000Z</time></trkpt>
        <trkpt lat="28.8252743" lon="104.7220141"><ele>438.79</ele><time>2026-03-22T01:58:05.000Z</time></trkpt>
        <trkpt lat="28.8251966" lon="104.7219162"><ele>438.5</ele><time>2026-03-22T01:58:13.000Z</time></trkpt>
        <trkpt lat="28.8251185" lon="104.7218225"><ele>437.95</ele><time>2026-03-22T01:58:21.000Z</time></trkpt>
        <trkpt lat="28.8250462" lon="104.7217224"><ele>437.51</ele><time>2026-03-22T01:58:29.000Z</time></trkpt>
        <trkpt lat="28.8249864" lon="104.7216082"><ele>437.32</ele><time>2026-03-22T01:58:37.000Z</time></trkpt>
        <trkpt lat="28.824943" lon="104.7214856"><ele>436.87</ele><time>2026-03-22T01:58:45.000Z</time></trkpt>
        <trkpt lat="28.8249054" lon="104.7213735"><ele>436.29</ele><time>2026-03-22T01:58:53.000Z</time></trkpt>
        <trkpt lat="28.8248515" lon="104.7212729"><ele>435.97</ele><time>2026-03-22T01:59:01.000Z</time></trkpt>
        <trkpt lat="28.8247846" lon="104.7211767"><ele>435.64</ele><time>2026-03-22T01:59:09.000Z</time></trkpt>
        <trkpt lat="28.8246943" lon="104.7211063"><ele>435.27</ele><time>2026-03-22T01:59:17.000Z</time></trkpt>
        <trkpt lat="28.8246005" lon="104.7210505"><ele>435.39</ele><time>2026-03-22T01:59:25.000Z</time></trkpt>
        <trkpt lat="28.8245059" lon="104.7210183"><ele>435.63</ele><time>2026-03-22T01:59:35.000Z</time></trkpt>
        <trkpt lat="28.8244324" lon="104.7210724"><ele>436.05</ele><time>2026-03-22T01:59:41.000Z</time></trkpt>
        <trkpt lat="28.8243546" lon="104.7211595"><ele>436.48</ele><time>2026-03-22T01:59:49.000Z</time></trkpt>
        <trkpt lat="28.8242802" lon="104.721255"><ele>436.97</ele><time>2026-03-22T01:59:57.000Z</time></trkpt>
        <trkpt lat="28.824195" lon="104.7213317"><ele>437.71</ele><time>2026-03-22T02:00:05.000Z</time></trkpt>
        <trkpt lat="28.8240928" lon="104.7213826"><ele>439.16</ele><time>2026-03-22T02:00:13.000Z</time></trkpt>
        <trkpt lat="28.8239862" lon="104.7214083"><ele>440.55</ele><time>2026-03-22T02:00:21.000Z</time></trkpt>
        <trkpt lat="28.8238803" lon="104.7214095"><ele>442.23</ele><time>2026-03-22T02:00:29.000Z</time></trkpt>
        <trkpt lat="28.8237708" lon="104.7213994"><ele>443.48</ele><time>2026-03-22T02:00:37.000Z</time></trkpt>
        <trkpt lat="28.8236629" lon="104.7213619"><ele>445.06</ele><time>2026-03-22T02:00:45.000Z</time></trkpt>
        <trkpt lat="28.8235683" lon="104.7213047"><ele>445.91</ele><time>2026-03-22T02:00:53.000Z</time></trkpt>
        <trkpt lat="28.8234852" lon="104.721219"><ele>446.31</ele><time>2026-03-22T02:01:01.000Z</time></trkpt>
        <trkpt lat="28.8234375" lon="104.7210998"><ele>446.01</ele><time>2026-03-22T02:01:09.000Z</time></trkpt>
        <trkpt lat="28.8234145" lon="104.7209728"><ele>444.77</ele><time>2026-03-22T02:01:17.000Z</time></trkpt>
        <trkpt lat="28.8234048" lon="104.7208536"><ele>443.74</ele><time>2026-03-22T02:01:25.000Z</time></trkpt>
        <trkpt lat="28.8233828" lon="104.7207342"><ele>442.92</ele><time>2026-03-22T02:01:33.000Z</time></trkpt>
        <trkpt lat="28.8233652" lon="104.7206116"><ele>442.27</ele><time>2026-03-22T02:01:41.000Z</time></trkpt>
        <trkpt lat="28.823352" lon="104.7204876"><ele>441.72</ele><time>2026-03-22T02:01:49.000Z</time></trkpt>
        <trkpt lat="28.8233404" lon="104.7203581"><ele>440.65</ele><time>2026-03-22T02:01:57.000Z</time></trkpt>
        <trkpt lat="28.8233146" lon="104.7202511"><ele>439.24</ele><time>2026-03-22T02:02:03.000Z</time></trkpt>
        <trkpt lat="28.823252" lon="104.720148"><ele>438.11</ele><time>2026-03-22T02:02:11.000Z</time></trkpt>
        <trkpt lat="28.8231715" lon="104.7200555"><ele>437.03</ele><time>2026-03-22T02:02:19.000Z</time></trkpt>
        <trkpt lat="28.8230946" lon="104.7199721"><ele>436.51</ele><time>2026-03-22T02:02:27.000Z</time></trkpt>
        <trkpt lat="28.8230193" lon="104.7198876"><ele>436</ele><time>2026-03-22T02:02:35.000Z</time></trkpt>
        <trkpt lat="28.8229507" lon="104.7198038"><ele>435.78</ele><time>2026-03-22T02:02:43.000Z</time></trkpt>
        <trkpt lat="28.8229036" lon="104.7197106"><ele>435.96</ele><time>2026-03-22T02:02:51.000Z</time></trkpt>
        <trkpt lat="28.8228763" lon="104.719605"><ele>436.62</ele><time>2026-03-22T02:02:59.000Z</time></trkpt>
        <trkpt lat="28.8228585" lon="104.7194991"><ele>437.67</ele><time>2026-03-22T02:03:07.000Z</time></trkpt>
        <trkpt lat="28.8228417" lon="104.7193939"><ele>438.44</ele><time>2026-03-22T02:03:15.000Z</time></trkpt>
        <trkpt lat="28.8228088" lon="104.7192944"><ele>438.36</ele><time>2026-03-22T02:03:23.000Z</time></trkpt>
        <trkpt lat="28.8227673" lon="104.719201"><ele>438.13</ele><time>2026-03-22T02:03:31.000Z</time></trkpt>
        <trkpt lat="28.8227238" lon="104.7191052"><ele>437.71</ele><time>2026-03-22T02:03:39.000Z</time></trkpt>
        <trkpt lat="28.8226738" lon="104.7190062"><ele>436.91</ele><time>2026-03-22T02:03:47.000Z</time></trkpt>
        <trkpt lat="28.8226182" lon="104.7189097"><ele>436.18</ele><time>2026-03-22T02:03:55.000Z</time></trkpt>
        <trkpt lat="28.8225572" lon="104.7188184"><ele>435.74</ele><time>2026-03-22T02:04:03.000Z</time></trkpt>
        <trkpt lat="28.8224875" lon="104.7187357"><ele>435.28</ele><time>2026-03-22T02:04:11.000Z</time></trkpt>
        <trkpt lat="28.8224101" lon="104.718654"><ele>434.68</ele><time>2026-03-22T02:04:19.000Z</time></trkpt>
        <trkpt lat="28.8223305" lon="104.718573"><ele>434.12</ele><time>2026-03-22T02:04:27.000Z</time></trkpt>
        <trkpt lat="28.8222512" lon="104.718495"><ele>433.68</ele><time>2026-03-22T02:04:35.000Z</time></trkpt>
        <trkpt lat="28.8221683" lon="104.7184172"><ele>433.37</ele><time>2026-03-22T02:04:43.000Z</time></trkpt>
        <trkpt lat="28.8220791" lon="104.7183372"><ele>433.17</ele><time>2026-03-22T02:04:51.000Z</time></trkpt>
        <trkpt lat="28.8219903" lon="104.7182548"><ele>433.09</ele><time>2026-03-22T02:04:59.000Z</time></trkpt>
        <trkpt lat="28.8219162" lon="104.7181525"><ele>433.28</ele><time>2026-03-22T02:05:07.000Z</time></trkpt>
        <trkpt lat="28.8218743" lon="104.7180347"><ele>433.2</ele><time>2026-03-22T02:05:15.000Z</time></trkpt>
        <trkpt lat="28.8218596" lon="104.7179065"><ele>432.87</ele><time>2026-03-22T02:05:23.000Z</time></trkpt>
        <trkpt lat="28.8218789" lon="104.7177758"><ele>432.66</ele><time>2026-03-22T02:05:31.000Z</time></trkpt>
        <trkpt lat="28.8219115" lon="104.7176677"><ele>432.16</ele><time>2026-03-22T02:05:37.000Z</time></trkpt>
        <trkpt lat="28.8219543" lon="104.717573"><ele>431.53</ele><time>2026-03-22T02:05:43.000Z</time></trkpt>
        <trkpt lat="28.822032" lon="104.7174825"><ele>431.39</ele><time>2026-03-22T02:05:51.000Z</time></trkpt>
        <trkpt lat="28.8221039" lon="104.7174055"><ele>430.64</ele><time>2026-03-22T02:05:57.000Z</time></trkpt>
        <trkpt lat="28.8221743" lon="104.71731"><ele>430.26</ele><time>2026-03-22T02:06:05.000Z</time></trkpt>
        <trkpt lat="28.8222055" lon="104.7171927"><ele>430.34</ele><time>2026-03-22T02:06:13.000Z</time></trkpt>
        <trkpt lat="28.8222177" lon="104.7170675"><ele>430.87</ele><time>2026-03-22T02:06:21.000Z</time></trkpt>
        <trkpt lat="28.8222282" lon="104.7169379"><ele>431.6</ele><time>2026-03-22T02:06:29.000Z</time></trkpt>
        <trkpt lat="28.8222626" lon="104.7168164"><ele>431.57</ele><time>2026-03-22T02:06:37.000Z</time></trkpt>
        <trkpt lat="28.8223255" lon="104.7167036"><ele>431.36</ele><time>2026-03-22T02:06:45.000Z</time></trkpt>
        <trkpt lat="28.8223837" lon="104.7166116"><ele>431</ele><time>2026-03-22T02:06:51.000Z</time></trkpt>
        <trkpt lat="28.8224639" lon="104.7164982"><ele>430.46</ele><time>2026-03-22T02:06:57.000Z</time></trkpt>
        <trkpt lat="28.8225141" lon="104.7163984"><ele>429.72</ele><time>2026-03-22T02:07:03.000Z</time></trkpt>
        <trkpt lat="28.8225546" lon="104.7162841"><ele>429.68</ele><time>2026-03-22T02:07:11.000Z</time></trkpt>
        <trkpt lat="28.8225933" lon="104.7161593"><ele>429.49</ele><time>2026-03-22T02:07:19.000Z</time></trkpt>
        <trkpt lat="28.8226325" lon="104.7160323"><ele>429.06</ele><time>2026-03-22T02:07:27.000Z</time></trkpt>
        <trkpt lat="28.8226617" lon="104.715925"><ele>429.09</ele><time>2026-03-22T02:07:33.000Z</time></trkpt>
        <trkpt lat="28.8226851" lon="104.7158049"><ele>428.93</ele><time>2026-03-22T02:07:41.000Z</time></trkpt>
        <trkpt lat="28.822665" lon="104.715692"><ele>429.05</ele><time>2026-03-22T02:07:49.000Z</time></trkpt>
        <trkpt lat="28.8226173" lon="104.7155841"><ele>428.9</ele><time>2026-03-22T02:07:57.000Z</time></trkpt>
        <trkpt lat="28.822565" lon="104.7154748"><ele>428.92</ele><time>2026-03-22T02:08:05.000Z</time></trkpt>
        <trkpt lat="28.8225099" lon="104.7153682"><ele>429.05</ele><time>2026-03-22T02:08:13.000Z</time></trkpt>
        <trkpt lat="28.8224639" lon="104.7153847"><ele>428.95</ele><time>2026-03-22T02:08:19.000Z</time></trkpt>
        <trkpt lat="28.8223854" lon="104.7154396"><ele>429.42</ele><time>2026-03-22T02:08:43.000Z</time></trkpt>
        <trkpt lat="28.8223061" lon="104.7155141"><ele>430.96</ele><time>2026-03-22T02:08:51.000Z</time></trkpt>
        <trkpt lat="28.8222242" lon="104.7155829"><ele>432.75</ele><time>2026-03-22T02:08:59.000Z</time></trkpt>
        <trkpt lat="28.8221235" lon="104.7156372"><ele>434.33</ele><time>2026-03-22T02:09:09.000Z</time></trkpt>
        <trkpt lat="28.8220268" lon="104.7156844"><ele>435.57</ele><time>2026-03-22T02:09:17.000Z</time></trkpt>
        <trkpt lat="28.8219196" lon="104.7157129"><ele>436.87</ele><time>2026-03-22T02:09:27.000Z</time></trkpt>
        <trkpt lat="28.8218234" lon="104.7157238"><ele>438.03</ele><time>2026-03-22T02:09:35.000Z</time></trkpt>
        <trkpt lat="28.8217244" lon="104.7157351"><ele>439.06</ele><time>2026-03-22T02:09:43.000Z</time></trkpt>
        <trkpt lat="28.8216194" lon="104.7157485"><ele>440.17</ele><time>2026-03-22T02:09:53.000Z</time></trkpt>
        <trkpt lat="28.8215116" lon="104.715752"><ele>440.15</ele><time>2026-03-22T02:10:01.000Z</time></trkpt>
        <trkpt lat="28.8214171" lon="104.7157109"><ele>439.94</ele><time>2026-03-22T02:10:09.000Z</time></trkpt>
        <trkpt lat="28.8213542" lon="104.7156233"><ele>439.99</ele><time>2026-03-22T02:10:17.000Z</time></trkpt>
        <trkpt lat="28.8213369" lon="104.7155021"><ele>440.08</ele><time>2026-03-22T02:10:25.000Z</time></trkpt>
        <trkpt lat="28.8213437" lon="104.7155526"><ele>439.54</ele><time>2026-03-22T02:10:45.000Z</time></trkpt>
        <trkpt lat="28.8213983" lon="104.7156447"><ele>437.85</ele><time>2026-03-22T02:10:51.000Z</time></trkpt>
        <trkpt lat="28.821413" lon="104.7157603"><ele>437.42</ele><time>2026-03-22T02:10:59.000Z</time></trkpt>
        <trkpt lat="28.8213487" lon="104.7158467"><ele>437.91</ele><time>2026-03-22T02:11:05.000Z</time></trkpt>
        <trkpt lat="28.8212385" lon="104.7158655"><ele>438.68</ele><time>2026-03-22T02:11:13.000Z</time></trkpt>
        <trkpt lat="28.8211576" lon="104.7158038"><ele>438.81</ele><time>2026-03-22T02:11:19.000Z</time></trkpt>
        <trkpt lat="28.8210949" lon="104.7156884"><ele>438.97</ele><time>2026-03-22T02:11:27.000Z</time></trkpt>
        <trkpt lat="28.8210382" lon="104.7155583"><ele>439.04</ele><time>2026-03-22T02:11:35.000Z</time></trkpt>
        <trkpt lat="28.8209716" lon="104.7154427"><ele>439.07</ele><time>2026-03-22T02:11:43.000Z</time></trkpt>
        <trkpt lat="28.8208819" lon="104.7153637"><ele>438.66</ele><time>2026-03-22T02:11:51.000Z</time></trkpt>
        <trkpt lat="28.8207747" lon="104.7153715"><ele>438.49</ele><time>2026-03-22T02:11:59.000Z</time></trkpt>
        <trkpt lat="28.8206909" lon="104.7154401"><ele>439.82</ele><time>2026-03-22T02:12:07.000Z</time></trkpt>
        <trkpt lat="28.820619" lon="104.7155308"><ele>441.31</ele><time>2026-03-22T02:12:15.000Z</time></trkpt>
        <trkpt lat="28.8205761" lon="104.7156149"><ele>442.89</ele><time>2026-03-22T02:12:23.000Z</time></trkpt>
        <trkpt lat="28.8205219" lon="104.7157055"><ele>443.09</ele><time>2026-03-22T02:12:33.000Z</time></trkpt>
        <trkpt lat="28.8204707" lon="104.7158053"><ele>443.4</ele><time>2026-03-22T02:12:41.000Z</time></trkpt>
        <trkpt lat="28.8204206" lon="104.7159105"><ele>444.21</ele><time>2026-03-22T02:12:49.000Z</time></trkpt>
        <trkpt lat="28.8203581" lon="104.7160022"><ele>445.03</ele><time>2026-03-22T02:12:57.000Z</time></trkpt>
        <trkpt lat="28.8202719" lon="104.716038"><ele>446.36</ele><time>2026-03-22T02:13:07.000Z</time></trkpt>
        <trkpt lat="28.8201752" lon="104.7160006"><ele>446.65</ele><time>2026-03-22T02:13:15.000Z</time></trkpt>
        <trkpt lat="28.8201322" lon="104.7158827"><ele>445.95</ele><time>2026-03-22T02:13:23.000Z</time></trkpt>
        <trkpt lat="28.8201271" lon="104.7157418"><ele>445.08</ele><time>2026-03-22T02:13:31.000Z</time></trkpt>
        <trkpt lat="28.8201168" lon="104.7156196"><ele>444.55</ele><time>2026-03-22T02:13:39.000Z</time></trkpt>
        <trkpt lat="28.8200788" lon="104.7155121"><ele>444.59</ele><time>2026-03-22T02:13:47.000Z</time></trkpt>
        <trkpt lat="28.8199979" lon="104.7154353"><ele>444.71</ele><time>2026-03-22T02:13:55.000Z</time></trkpt>
        <trkpt lat="28.8198963" lon="104.7153792"><ele>445.06</ele><time>2026-03-22T02:14:03.000Z</time></trkpt>
        <trkpt lat="28.8197944" lon="104.7153197"><ele>445.77</ele><time>2026-03-22T02:14:11.000Z</time></trkpt>
        <trkpt lat="28.8197071" lon="104.715251"><ele>446.39</ele><time>2026-03-22T02:14:19.000Z</time></trkpt>
        <trkpt lat="28.8196148" lon="104.7151943"><ele>446.38</ele><time>2026-03-22T02:14:27.000Z</time></trkpt>
        <trkpt lat="28.8195404" lon="104.7151199"><ele>446.1</ele><time>2026-03-22T02:14:37.000Z</time></trkpt>
        <trkpt lat="28.8194792" lon="104.7150217"><ele>445.23</ele><time>2026-03-22T02:14:45.000Z</time></trkpt>
        <trkpt lat="28.8194089" lon="104.7149228"><ele>444.44</ele><time>2026-03-22T02:14:53.000Z</time></trkpt>
        <trkpt lat="28.8193265" lon="104.7148455"><ele>442.99</ele><time>2026-03-22T02:15:01.000Z</time></trkpt>
        <trkpt lat="28.8192298" lon="104.7148063"><ele>442.21</ele><time>2026-03-22T02:15:09.000Z</time></trkpt>
        <trkpt lat="28.819118" lon="104.7147922"><ele>441.84</ele><time>2026-03-22T02:15:17.000Z</time></trkpt>
        <trkpt lat="28.8190194" lon="104.7147684"><ele>442.77</ele><time>2026-03-22T02:15:25.000Z</time></trkpt>
        <trkpt lat="28.8189361" lon="104.7147119"><ele>444.76</ele><time>2026-03-22T02:15:33.000Z</time></trkpt>
        <trkpt lat="28.8188564" lon="104.7146518"><ele>446.48</ele><time>2026-03-22T02:15:41.000Z</time></trkpt>
        <trkpt lat="28.8187784" lon="104.7145926"><ele>448.83</ele><time>2026-03-22T02:15:49.000Z</time></trkpt>
        <trkpt lat="28.8186895" lon="104.7145445"><ele>450.4</ele><time>2026-03-22T02:15:57.000Z</time></trkpt>
        <trkpt lat="28.8185927" lon="104.7144913"><ele>451.35</ele><time>2026-03-22T02:16:05.000Z</time></trkpt>
        <trkpt lat="28.8184962" lon="104.7144396"><ele>451.81</ele><time>2026-03-22T02:16:13.000Z</time></trkpt>
        <trkpt lat="28.8184003" lon="104.7143858"><ele>452.67</ele><time>2026-03-22T02:16:21.000Z</time></trkpt>
        <trkpt lat="28.8183618" lon="104.7142849"><ele>451.97</ele><time>2026-03-22T02:16:29.000Z</time></trkpt>
        <trkpt lat="28.8183832" lon="104.7141566"><ele>450.68</ele><time>2026-03-22T02:16:37.000Z</time></trkpt>
        <trkpt lat="28.818408" lon="104.7140269"><ele>448.86</ele><time>2026-03-22T02:16:45.000Z</time></trkpt>
        <trkpt lat="28.8184155" lon="104.7139143"><ele>447.81</ele><time>2026-03-22T02:16:53.000Z</time></trkpt>
        <trkpt lat="28.8184029" lon="104.7137958"><ele>447.2</ele><time>2026-03-22T02:17:01.000Z</time></trkpt>
        <trkpt lat="28.8184057" lon="104.7136781"><ele>445.95</ele><time>2026-03-22T02:17:09.000Z</time></trkpt>
        <trkpt lat="28.818369" lon="104.7135762"><ele>444.1</ele><time>2026-03-22T02:17:19.000Z</time></trkpt>
        <trkpt lat="28.818289" lon="104.7135102"><ele>443.97</ele><time>2026-03-22T02:17:29.000Z</time></trkpt>
        <trkpt lat="28.8183145" lon="104.7134501"><ele>443.98</ele><time>2026-03-22T02:17:43.000Z</time></trkpt>
        <trkpt lat="28.8183983" lon="104.7134019"><ele>443.17</ele><time>2026-03-22T02:17:57.000Z</time></trkpt>
        <trkpt lat="28.8184985" lon="104.7134247"><ele>439.31</ele><time>2026-03-22T02:18:05.000Z</time></trkpt>
        <trkpt lat="28.8185186" lon="104.7133479"><ele>436.37</ele><time>2026-03-22T02:18:19.000Z</time></trkpt>
        <trkpt lat="28.8184556" lon="104.7132942"><ele>433.6</ele><time>2026-03-22T02:18:29.000Z</time></trkpt>
        <trkpt lat="28.8183982" lon="104.7131921"><ele>431</ele><time>2026-03-22T02:18:37.000Z</time></trkpt>
        <trkpt lat="28.8183598" lon="104.7130796"><ele>430.4</ele><time>2026-03-22T02:18:45.000Z</time></trkpt>
        <trkpt lat="28.8183327" lon="104.7129538"><ele>429.22</ele><time>2026-03-22T02:18:55.000Z</time></trkpt>
        <trkpt lat="28.8183149" lon="104.7128418"><ele>427.1</ele><time>2026-03-22T02:19:03.000Z</time></trkpt>
        <trkpt lat="28.8182976" lon="104.7127291"><ele>425.27</ele><time>2026-03-22T02:19:11.000Z</time></trkpt>
        <trkpt lat="28.8182828" lon="104.7126245"><ele>425.51</ele><time>2026-03-22T02:19:27.000Z</time></trkpt>
        <trkpt lat="28.8182527" lon="104.7125221"><ele>423.15</ele><time>2026-03-22T02:19:39.000Z</time></trkpt>
        <trkpt lat="28.8182321" lon="104.7124093"><ele>418.05</ele><time>2026-03-22T02:19:49.000Z</time></trkpt>
        <trkpt lat="28.8182153" lon="104.7122918"><ele>413.51</ele><time>2026-03-22T02:19:57.000Z</time></trkpt>
        <trkpt lat="28.8181815" lon="104.7121824"><ele>410.33</ele><time>2026-03-22T02:20:07.000Z</time></trkpt>
        <trkpt lat="28.8181312" lon="104.7121509"><ele>407.36</ele><time>2026-03-22T02:20:19.000Z</time></trkpt>
        <trkpt lat="28.8180516" lon="104.7121895"><ele>405.63</ele><time>2026-03-22T02:20:47.000Z</time></trkpt>
        <trkpt lat="28.8179537" lon="104.7122421"><ele>400.82</ele><time>2026-03-22T02:21:01.000Z</time></trkpt>
        <trkpt lat="28.817865" lon="104.7123068"><ele>395.72</ele><time>2026-03-22T02:21:15.000Z</time></trkpt>
        <trkpt lat="28.8177666" lon="104.7123298"><ele>390.54</ele><time>2026-03-22T02:21:33.000Z</time></trkpt>
        <trkpt lat="28.8177347" lon="104.7122563"><ele>386.29</ele><time>2026-03-22T02:21:51.000Z</time></trkpt>
        <trkpt lat="28.8177945" lon="104.7121692"><ele>381.29</ele><time>2026-03-22T02:22:05.000Z</time></trkpt>
        <trkpt lat="28.8178753" lon="104.7120786"><ele>376.84</ele><time>2026-03-22T02:22:17.000Z</time></trkpt>
        <trkpt lat="28.8178718" lon="104.7119829"><ele>372.71</ele><time>2026-03-22T02:22:40.000Z</time></trkpt>
        <trkpt lat="28.817815" lon="104.7119819"><ele>367.61</ele><time>2026-03-22T02:23:01.000Z</time></trkpt>
        <trkpt lat="28.8177203" lon="104.71202"><ele>363.21</ele><time>2026-03-22T02:23:13.000Z</time></trkpt>
        <trkpt lat="28.8176236" lon="104.7120971"><ele>359.14</ele><time>2026-03-22T02:23:23.000Z</time></trkpt>
        <trkpt lat="28.8175402" lon="104.7121735"><ele>355.52</ele><time>2026-03-22T02:23:33.000Z</time></trkpt>
        <trkpt lat="28.8174504" lon="104.7122278"><ele>353.35</ele><time>2026-03-22T02:23:47.000Z</time></trkpt>
        <trkpt lat="28.8173734" lon="104.7123013"><ele>349.86</ele><time>2026-03-22T02:23:59.000Z</time></trkpt>
        <trkpt lat="28.817288" lon="104.712332"><ele>347.11</ele><time>2026-03-22T02:24:09.000Z</time></trkpt>
        <trkpt lat="28.8171907" lon="104.71234"><ele>345.12</ele><time>2026-03-22T02:24:19.000Z</time></trkpt>
        <trkpt lat="28.8170977" lon="104.7123516"><ele>342.75</ele><time>2026-03-22T02:24:29.000Z</time></trkpt>
        <trkpt lat="28.8170022" lon="104.7123725"><ele>339.57</ele><time>2026-03-22T02:24:41.000Z</time></trkpt>
        <trkpt lat="28.8169101" lon="104.7123832"><ele>336.12</ele><time>2026-03-22T02:24:49.000Z</time></trkpt>
        <trkpt lat="28.8168202" lon="104.7123981"><ele>335.05</ele><time>2026-03-22T02:24:57.000Z</time></trkpt>
        <trkpt lat="28.8167296" lon="104.7124291"><ele>334.78</ele><time>2026-03-22T02:25:09.000Z</time></trkpt>
        <trkpt lat="28.8166508" lon="104.7124974"><ele>333.62</ele><time>2026-03-22T02:25:19.000Z</time></trkpt>
        <trkpt lat="28.8165675" lon="104.7125449"><ele>332.11</ele><time>2026-03-22T02:25:29.000Z</time></trkpt>
        <trkpt lat="28.8164813" lon="104.7125965"><ele>329.28</ele><time>2026-03-22T02:25:41.000Z</time></trkpt>
        <trkpt lat="28.8163866" lon="104.7126364"><ele>323.86</ele><time>2026-03-22T02:25:49.000Z</time></trkpt>
        <trkpt lat="28.816286" lon="104.7126609"><ele>320.13</ele><time>2026-03-22T02:25:57.000Z</time></trkpt>
        <trkpt lat="28.8161802" lon="104.7126684"><ele>317.81</ele><time>2026-03-22T02:26:07.000Z</time></trkpt>
        <trkpt lat="28.8160901" lon="104.7126973"><ele>315.36</ele><time>2026-03-22T02:26:19.000Z</time></trkpt>
        <trkpt lat="28.8159944" lon="104.7127289"><ele>313.61</ele><time>2026-03-22T02:26:27.000Z</time></trkpt>
        <trkpt lat="28.8159019" lon="104.7127519"><ele>313.54</ele><time>2026-03-22T02:26:39.000Z</time></trkpt>
        <trkpt lat="28.8158272" lon="104.7128071"><ele>311.33</ele><time>2026-03-22T02:26:47.000Z</time></trkpt>
        <trkpt lat="28.8157519" lon="104.7128963"><ele>310.4</ele><time>2026-03-22T02:26:57.000Z</time></trkpt>
        <trkpt lat="28.8156989" lon="104.7129986"><ele>308.36</ele><time>2026-03-22T02:27:09.000Z</time></trkpt>
        <trkpt lat="28.8156623" lon="104.7131184"><ele>305.74</ele><time>2026-03-22T02:27:19.000Z</time></trkpt>
        <trkpt lat="28.8156304" lon="104.7132287"><ele>305.72</ele><time>2026-03-22T02:27:27.000Z</time></trkpt>
        <trkpt lat="28.8156102" lon="104.7133342"><ele>305.89</ele><time>2026-03-22T02:27:37.000Z</time></trkpt>
        <trkpt lat="28.8155537" lon="104.713439"><ele>304.18</ele><time>2026-03-22T02:27:49.000Z</time></trkpt>
        <trkpt lat="28.8154583" lon="104.7134707"><ele>301.18</ele><time>2026-03-22T02:27:59.000Z</time></trkpt>
        <trkpt lat="28.815361" lon="104.7134706"><ele>299.67</ele><time>2026-03-22T02:28:07.000Z</time></trkpt>
        <trkpt lat="28.8152742" lon="104.7134142"><ele>297.57</ele><time>2026-03-22T02:28:15.000Z</time></trkpt>
        <trkpt lat="28.8151801" lon="104.7133749"><ele>295.53</ele><time>2026-03-22T02:28:23.000Z</time></trkpt>
        <trkpt lat="28.8150766" lon="104.7133454"><ele>293.5</ele><time>2026-03-22T02:28:31.000Z</time></trkpt>
        <trkpt lat="28.8149663" lon="104.7133054"><ele>292.26</ele><time>2026-03-22T02:28:39.000Z</time></trkpt>
        <trkpt lat="28.8148914" lon="104.7132362"><ele>291.37</ele><time>2026-03-22T02:28:49.000Z</time></trkpt>
        <trkpt lat="28.8148218" lon="104.7131592"><ele>289.77</ele><time>2026-03-22T02:28:57.000Z</time></trkpt>
        <trkpt lat="28.8147296" lon="104.713145"><ele>288.75</ele><time>2026-03-22T02:29:05.000Z</time></trkpt>
        <trkpt lat="28.8146284" lon="104.7131245"><ele>287.64</ele><time>2026-03-22T02:29:13.000Z</time></trkpt>
        <trkpt lat="28.8145418" lon="104.7130566"><ele>287.05</ele><time>2026-03-22T02:29:21.000Z</time></trkpt>
        <trkpt lat="28.814457" lon="104.7129705"><ele>286.89</ele><time>2026-03-22T02:29:29.000Z</time></trkpt>
        <trkpt lat="28.8143647" lon="104.7128939"><ele>286.73</ele><time>2026-03-22T02:29:37.000Z</time></trkpt>
        <trkpt lat="28.8142721" lon="104.712857"><ele>286.9</ele><time>2026-03-22T02:29:45.000Z</time></trkpt>
        <trkpt lat="28.8141798" lon="104.7128572"><ele>286.73</ele><time>2026-03-22T02:29:53.000Z</time></trkpt>
        <trkpt lat="28.8140843" lon="104.7128429"><ele>286.94</ele><time>2026-03-22T02:30:01.000Z</time></trkpt>
        <trkpt lat="28.8139899" lon="104.7128631"><ele>287.75</ele><time>2026-03-22T02:30:09.000Z</time></trkpt>
        <trkpt lat="28.8138895" lon="104.7128616"><ele>288.46</ele><time>2026-03-22T02:30:17.000Z</time></trkpt>
        <trkpt lat="28.8137945" lon="104.7128489"><ele>288.94</ele><time>2026-03-22T02:30:25.000Z</time></trkpt>
        <trkpt lat="28.8137064" lon="104.7129047"><ele>289.68</ele><time>2026-03-22T02:30:35.000Z</time></trkpt>
        <trkpt lat="28.8136568" lon="104.7130025"><ele>290.12</ele><time>2026-03-22T02:30:43.000Z</time></trkpt>
        <trkpt lat="28.8136107" lon="104.713103"><ele>290.37</ele><time>2026-03-22T02:30:51.000Z</time></trkpt>
        <trkpt lat="28.8135562" lon="104.7131941"><ele>290.39</ele><time>2026-03-22T02:30:59.000Z</time></trkpt>
        <trkpt lat="28.8134787" lon="104.7132772"><ele>290.58</ele><time>2026-03-22T02:31:07.000Z</time></trkpt>
        <trkpt lat="28.8133886" lon="104.713332"><ele>290.12</ele><time>2026-03-22T02:31:15.000Z</time></trkpt>
        <trkpt lat="28.8132994" lon="104.7133916"><ele>289.5</ele><time>2026-03-22T02:31:23.000Z</time></trkpt>
        <trkpt lat="28.8132203" lon="104.7134544"><ele>288.89</ele><time>2026-03-22T02:31:31.000Z</time></trkpt>
        <trkpt lat="28.8131248" lon="104.7134663"><ele>288.46</ele><time>2026-03-22T02:31:43.000Z</time></trkpt>
        <trkpt lat="28.8130305" lon="104.7134934"><ele>288.37</ele><time>2026-03-22T02:31:55.000Z</time></trkpt>
        <trkpt lat="28.8129592" lon="104.7135774"><ele>289.42</ele><time>2026-03-22T02:32:03.000Z</time></trkpt>
        <trkpt lat="28.812907" lon="104.7136971"><ele>289.18</ele><time>2026-03-22T02:32:11.000Z</time></trkpt>
        <trkpt lat="28.8128604" lon="104.7138222"><ele>288.85</ele><time>2026-03-22T02:32:19.000Z</time></trkpt>
        <trkpt lat="28.8128604" lon="104.7138222"><ele>288.85</ele><time>2026-03-22T02:32:27.000Z</time></trkpt>
      </trkseg>
  </trk>
</gpx>